<?xml version="1.0" encoding="UTF-8" standalone="no" ?>
<gpx xmlns="http://www.topografix.com/GPX/1/1" xmlns:xsi="http://www.w3.org/2001/XMLSchema-instance" xsi:schemaLocation="http://www.topografix.com/GPX/1/1 http://www.topografix.com/GPX/1/1/gpx.xsd" version="1.1" creator="VisuGPX - https://www.visugpx.com">
  <metadata>
    <name>Colmar - Waldeslust - Houssen - Horbourg</name>
    <desc><![CDATA[Tour du 20/05/2011
Colmar - Waldeslust - Houssen - Horbourg]]></desc>
  </metadata>
  <trk>
    <name><![CDATA[20-MAI-11 23:09:30]]></name>
    <trkseg>
      <trkpt lat="48.08042" lon="7.32634">
        <ele>219.8</ele>
        <time>2011-05-20T16:55:40Z</time>
      </trkpt>
      <trkpt lat="48.08042" lon="7.32634">
        <ele>216.43</ele>
        <time>2011-05-20T16:55:41Z</time>
      </trkpt>
      <trkpt lat="48.08042" lon="7.32634">
        <ele>217.88</ele>
        <time>2011-05-20T16:55:54Z</time>
      </trkpt>
      <trkpt lat="48.08042" lon="7.32634">
        <ele>217.4</ele>
        <time>2011-05-20T16:56:07Z</time>
      </trkpt>
      <trkpt lat="48.08041" lon="7.32634">
        <ele>218.36</ele>
        <time>2011-05-20T16:56:18Z</time>
      </trkpt>
      <trkpt lat="48.08041" lon="7.32634">
        <ele>217.4</ele>
        <time>2011-05-20T16:56:29Z</time>
      </trkpt>
      <trkpt lat="48.08041" lon="7.32634">
        <ele>217.88</ele>
        <time>2011-05-20T16:56:39Z</time>
      </trkpt>
      <trkpt lat="48.08042" lon="7.32634">
        <ele>217.4</ele>
        <time>2011-05-20T16:56:50Z</time>
      </trkpt>
      <trkpt lat="48.08042" lon="7.32634">
        <ele>217.4</ele>
        <time>2011-05-20T16:57:01Z</time>
      </trkpt>
      <trkpt lat="48.08042" lon="7.32634">
        <ele>218.36</ele>
        <time>2011-05-20T16:57:06Z</time>
      </trkpt>
      <trkpt lat="48.08036" lon="7.32657">
        <ele>219.32</ele>
        <time>2011-05-20T16:57:13Z</time>
      </trkpt>
      <trkpt lat="48.08034" lon="7.32666">
        <ele>215.95</ele>
        <time>2011-05-20T16:57:15Z</time>
      </trkpt>
      <trkpt lat="48.08036" lon="7.32688">
        <ele>216.43</ele>
        <time>2011-05-20T16:57:21Z</time>
      </trkpt>
      <trkpt lat="48.08057" lon="7.32698">
        <ele>216.91</ele>
        <time>2011-05-20T16:57:29Z</time>
      </trkpt>
      <trkpt lat="48.08066" lon="7.32697">
        <ele>216.43</ele>
        <time>2011-05-20T16:57:35Z</time>
      </trkpt>
      <trkpt lat="48.08064" lon="7.32694">
        <ele>216.91</ele>
        <time>2011-05-20T16:57:41Z</time>
      </trkpt>
      <trkpt lat="48.08064" lon="7.32694">
        <ele>216.43</ele>
        <time>2011-05-20T16:57:59Z</time>
      </trkpt>
      <trkpt lat="48.08064" lon="7.32694">
        <ele>216.91</ele>
        <time>2011-05-20T16:58:14Z</time>
      </trkpt>
      <trkpt lat="48.08064" lon="7.32693">
        <ele>216.43</ele>
        <time>2011-05-20T16:58:25Z</time>
      </trkpt>
      <trkpt lat="48.08064" lon="7.32699">
        <ele>216.43</ele>
        <time>2011-05-20T16:58:29Z</time>
      </trkpt>
      <trkpt lat="48.08078" lon="7.32707">
        <ele>216.43</ele>
        <time>2011-05-20T16:58:37Z</time>
      </trkpt>
      <trkpt lat="48.081" lon="7.32725">
        <ele>216.43</ele>
        <time>2011-05-20T16:58:47Z</time>
      </trkpt>
      <trkpt lat="48.08131" lon="7.32742">
        <ele>215.95</ele>
        <time>2011-05-20T16:58:56Z</time>
      </trkpt>
      <trkpt lat="48.0816" lon="7.32758">
        <ele>215.47</ele>
        <time>2011-05-20T16:59:04Z</time>
      </trkpt>
      <trkpt lat="48.082" lon="7.32777">
        <ele>214.99</ele>
        <time>2011-05-20T16:59:13Z</time>
      </trkpt>
      <trkpt lat="48.08218" lon="7.32783">
        <ele>215.95</ele>
        <time>2011-05-20T16:59:20Z</time>
      </trkpt>
      <trkpt lat="48.08224" lon="7.32766">
        <ele>215.95</ele>
        <time>2011-05-20T16:59:26Z</time>
      </trkpt>
      <trkpt lat="48.08228" lon="7.32717">
        <ele>215.95</ele>
        <time>2011-05-20T16:59:34Z</time>
      </trkpt>
      <trkpt lat="48.08232" lon="7.32671">
        <ele>215.47</ele>
        <time>2011-05-20T16:59:42Z</time>
      </trkpt>
      <trkpt lat="48.08236" lon="7.32615">
        <ele>215.47</ele>
        <time>2011-05-20T16:59:52Z</time>
      </trkpt>
      <trkpt lat="48.08239" lon="7.32568">
        <ele>215.47</ele>
        <time>2011-05-20T17:00:00Z</time>
      </trkpt>
      <trkpt lat="48.08243" lon="7.3253">
        <ele>216.43</ele>
        <time>2011-05-20T17:00:07Z</time>
      </trkpt>
      <trkpt lat="48.08243" lon="7.3252">
        <ele>217.4</ele>
        <time>2011-05-20T17:00:09Z</time>
      </trkpt>
      <trkpt lat="48.08247" lon="7.32471">
        <ele>216.43</ele>
        <time>2011-05-20T17:00:18Z</time>
      </trkpt>
      <trkpt lat="48.0825" lon="7.32432">
        <ele>216.43</ele>
        <time>2011-05-20T17:00:25Z</time>
      </trkpt>
      <trkpt lat="48.08254" lon="7.32385">
        <ele>216.91</ele>
        <time>2011-05-20T17:00:33Z</time>
      </trkpt>
      <trkpt lat="48.08259" lon="7.3233">
        <ele>218.36</ele>
        <time>2011-05-20T17:00:42Z</time>
      </trkpt>
      <trkpt lat="48.08263" lon="7.32283">
        <ele>217.4</ele>
        <time>2011-05-20T17:00:50Z</time>
      </trkpt>
      <trkpt lat="48.0827" lon="7.32231">
        <ele>218.36</ele>
        <time>2011-05-20T17:00:59Z</time>
      </trkpt>
      <trkpt lat="48.08278" lon="7.32174">
        <ele>218.36</ele>
        <time>2011-05-20T17:01:09Z</time>
      </trkpt>
      <trkpt lat="48.08284" lon="7.32122">
        <ele>218.84</ele>
        <time>2011-05-20T17:01:18Z</time>
      </trkpt>
      <trkpt lat="48.08289" lon="7.32079">
        <ele>218.84</ele>
        <time>2011-05-20T17:01:26Z</time>
      </trkpt>
      <trkpt lat="48.08296" lon="7.32044">
        <ele>218.84</ele>
        <time>2011-05-20T17:01:34Z</time>
      </trkpt>
      <trkpt lat="48.0832" lon="7.32051">
        <ele>217.88</ele>
        <time>2011-05-20T17:01:42Z</time>
      </trkpt>
      <trkpt lat="48.08347" lon="7.3206">
        <ele>217.4</ele>
        <time>2011-05-20T17:01:48Z</time>
      </trkpt>
      <trkpt lat="48.08381" lon="7.32067">
        <ele>217.4</ele>
        <time>2011-05-20T17:01:56Z</time>
      </trkpt>
      <trkpt lat="48.08415" lon="7.3207">
        <ele>217.88</ele>
        <time>2011-05-20T17:02:05Z</time>
      </trkpt>
      <trkpt lat="48.08451" lon="7.32072">
        <ele>217.4</ele>
        <time>2011-05-20T17:02:14Z</time>
      </trkpt>
      <trkpt lat="48.08482" lon="7.32075">
        <ele>216.91</ele>
        <time>2011-05-20T17:02:21Z</time>
      </trkpt>
      <trkpt lat="48.08511" lon="7.32092">
        <ele>216.91</ele>
        <time>2011-05-20T17:02:29Z</time>
      </trkpt>
      <trkpt lat="48.08538" lon="7.32094">
        <ele>216.91</ele>
        <time>2011-05-20T17:02:36Z</time>
      </trkpt>
      <trkpt lat="48.08572" lon="7.32067">
        <ele>216.91</ele>
        <time>2011-05-20T17:02:46Z</time>
      </trkpt>
      <trkpt lat="48.08571" lon="7.32037">
        <ele>216.91</ele>
        <time>2011-05-20T17:02:49Z</time>
      </trkpt>
      <trkpt lat="48.0857" lon="7.32009">
        <ele>217.4</ele>
        <time>2011-05-20T17:02:57Z</time>
      </trkpt>
      <trkpt lat="48.08573" lon="7.32008">
        <ele>216.91</ele>
        <time>2011-05-20T17:02:59Z</time>
      </trkpt>
      <trkpt lat="48.08593" lon="7.3201">
        <ele>217.88</ele>
        <time>2011-05-20T17:03:07Z</time>
      </trkpt>
      <trkpt lat="48.08631" lon="7.32016">
        <ele>216.91</ele>
        <time>2011-05-20T17:03:15Z</time>
      </trkpt>
      <trkpt lat="48.08665" lon="7.32016">
        <ele>216.91</ele>
        <time>2011-05-20T17:03:23Z</time>
      </trkpt>
      <trkpt lat="48.08694" lon="7.32023">
        <ele>216.43</ele>
        <time>2011-05-20T17:03:29Z</time>
      </trkpt>
      <trkpt lat="48.0874" lon="7.3203">
        <ele>216.43</ele>
        <time>2011-05-20T17:03:38Z</time>
      </trkpt>
      <trkpt lat="48.08746" lon="7.3203">
        <ele>216.43</ele>
        <time>2011-05-20T17:03:40Z</time>
      </trkpt>
      <trkpt lat="48.08749" lon="7.32012">
        <ele>216.43</ele>
        <time>2011-05-20T17:03:45Z</time>
      </trkpt>
      <trkpt lat="48.08749" lon="7.32007">
        <ele>216.43</ele>
        <time>2011-05-20T17:03:46Z</time>
      </trkpt>
      <trkpt lat="48.0875" lon="7.31963">
        <ele>216.43</ele>
        <time>2011-05-20T17:03:54Z</time>
      </trkpt>
      <trkpt lat="48.08754" lon="7.31928">
        <ele>215.95</ele>
        <time>2011-05-20T17:04:00Z</time>
      </trkpt>
      <trkpt lat="48.08758" lon="7.31884">
        <ele>215.95</ele>
        <time>2011-05-20T17:04:07Z</time>
      </trkpt>
      <trkpt lat="48.08758" lon="7.31871">
        <ele>216.43</ele>
        <time>2011-05-20T17:04:09Z</time>
      </trkpt>
      <trkpt lat="48.0876" lon="7.31852">
        <ele>216.91</ele>
        <time>2011-05-20T17:04:12Z</time>
      </trkpt>
      <trkpt lat="48.08761" lon="7.31833">
        <ele>216.43</ele>
        <time>2011-05-20T17:04:15Z</time>
      </trkpt>
      <trkpt lat="48.08764" lon="7.31782">
        <ele>216.43</ele>
        <time>2011-05-20T17:04:23Z</time>
      </trkpt>
      <trkpt lat="48.08769" lon="7.31743">
        <ele>217.4</ele>
        <time>2011-05-20T17:04:30Z</time>
      </trkpt>
      <trkpt lat="48.08777" lon="7.3171">
        <ele>217.88</ele>
        <time>2011-05-20T17:04:36Z</time>
      </trkpt>
      <trkpt lat="48.08792" lon="7.31669">
        <ele>217.4</ele>
        <time>2011-05-20T17:04:44Z</time>
      </trkpt>
      <trkpt lat="48.08816" lon="7.31626">
        <ele>218.36</ele>
        <time>2011-05-20T17:04:54Z</time>
      </trkpt>
      <trkpt lat="48.08839" lon="7.3162">
        <ele>218.36</ele>
        <time>2011-05-20T17:05:01Z</time>
      </trkpt>
      <trkpt lat="48.08863" lon="7.31619">
        <ele>218.36</ele>
        <time>2011-05-20T17:05:07Z</time>
      </trkpt>
      <trkpt lat="48.08891" lon="7.31626">
        <ele>218.36</ele>
        <time>2011-05-20T17:05:14Z</time>
      </trkpt>
      <trkpt lat="48.08895" lon="7.31654">
        <ele>218.36</ele>
        <time>2011-05-20T17:05:19Z</time>
      </trkpt>
      <trkpt lat="48.08897" lon="7.31694">
        <ele>217.88</ele>
        <time>2011-05-20T17:05:26Z</time>
      </trkpt>
      <trkpt lat="48.08898" lon="7.317">
        <ele>217.4</ele>
        <time>2011-05-20T17:05:27Z</time>
      </trkpt>
      <trkpt lat="48.08909" lon="7.31738">
        <ele>216.43</ele>
        <time>2011-05-20T17:05:35Z</time>
      </trkpt>
      <trkpt lat="48.08927" lon="7.31747">
        <ele>216.91</ele>
        <time>2011-05-20T17:05:42Z</time>
      </trkpt>
      <trkpt lat="48.0895" lon="7.31755">
        <ele>216.91</ele>
        <time>2011-05-20T17:05:47Z</time>
      </trkpt>
      <trkpt lat="48.08972" lon="7.3178">
        <ele>217.4</ele>
        <time>2011-05-20T17:05:54Z</time>
      </trkpt>
      <trkpt lat="48.08989" lon="7.31801">
        <ele>215.95</ele>
        <time>2011-05-20T17:06:01Z</time>
      </trkpt>
      <trkpt lat="48.08998" lon="7.31831">
        <ele>215.47</ele>
        <time>2011-05-20T17:06:07Z</time>
      </trkpt>
      <trkpt lat="48.09024" lon="7.31822">
        <ele>214.03</ele>
        <time>2011-05-20T17:06:13Z</time>
      </trkpt>
      <trkpt lat="48.09063" lon="7.31784">
        <ele>214.51</ele>
        <time>2011-05-20T17:06:21Z</time>
      </trkpt>
      <trkpt lat="48.09078" lon="7.31809">
        <ele>215.47</ele>
        <time>2011-05-20T17:06:26Z</time>
      </trkpt>
      <trkpt lat="48.09086" lon="7.31825">
        <ele>215.47</ele>
        <time>2011-05-20T17:06:29Z</time>
      </trkpt>
      <trkpt lat="48.09109" lon="7.31865">
        <ele>215.95</ele>
        <time>2011-05-20T17:06:38Z</time>
      </trkpt>
      <trkpt lat="48.09131" lon="7.31861">
        <ele>215.47</ele>
        <time>2011-05-20T17:06:44Z</time>
      </trkpt>
      <trkpt lat="48.0916" lon="7.31859">
        <ele>215.95</ele>
        <time>2011-05-20T17:06:51Z</time>
      </trkpt>
      <trkpt lat="48.09164" lon="7.3186">
        <ele>215.95</ele>
        <time>2011-05-20T17:06:52Z</time>
      </trkpt>
      <trkpt lat="48.09193" lon="7.31863">
        <ele>215.95</ele>
        <time>2011-05-20T17:06:59Z</time>
      </trkpt>
      <trkpt lat="48.09215" lon="7.31866">
        <ele>215.95</ele>
        <time>2011-05-20T17:07:05Z</time>
      </trkpt>
      <trkpt lat="48.09243" lon="7.3187">
        <ele>216.43</ele>
        <time>2011-05-20T17:07:12Z</time>
      </trkpt>
      <trkpt lat="48.09264" lon="7.3187">
        <ele>216.43</ele>
        <time>2011-05-20T17:07:17Z</time>
      </trkpt>
      <trkpt lat="48.09282" lon="7.31845">
        <ele>216.91</ele>
        <time>2011-05-20T17:07:24Z</time>
      </trkpt>
      <trkpt lat="48.09286" lon="7.31815">
        <ele>216.91</ele>
        <time>2011-05-20T17:07:29Z</time>
      </trkpt>
      <trkpt lat="48.09296" lon="7.31764">
        <ele>216.91</ele>
        <time>2011-05-20T17:07:38Z</time>
      </trkpt>
      <trkpt lat="48.09306" lon="7.31716">
        <ele>217.4</ele>
        <time>2011-05-20T17:07:47Z</time>
      </trkpt>
      <trkpt lat="48.09314" lon="7.31672">
        <ele>217.4</ele>
        <time>2011-05-20T17:07:55Z</time>
      </trkpt>
      <trkpt lat="48.09322" lon="7.31615">
        <ele>218.36</ele>
        <time>2011-05-20T17:08:05Z</time>
      </trkpt>
      <trkpt lat="48.0933" lon="7.31562">
        <ele>218.36</ele>
        <time>2011-05-20T17:08:14Z</time>
      </trkpt>
      <trkpt lat="48.09339" lon="7.31517">
        <ele>218.84</ele>
        <time>2011-05-20T17:08:22Z</time>
      </trkpt>
      <trkpt lat="48.09348" lon="7.31473">
        <ele>219.32</ele>
        <time>2011-05-20T17:08:30Z</time>
      </trkpt>
      <trkpt lat="48.09358" lon="7.31431">
        <ele>219.8</ele>
        <time>2011-05-20T17:08:38Z</time>
      </trkpt>
      <trkpt lat="48.0936" lon="7.31385">
        <ele>220.28</ele>
        <time>2011-05-20T17:08:46Z</time>
      </trkpt>
      <trkpt lat="48.09362" lon="7.31334">
        <ele>219.8</ele>
        <time>2011-05-20T17:08:54Z</time>
      </trkpt>
      <trkpt lat="48.09366" lon="7.31283">
        <ele>220.28</ele>
        <time>2011-05-20T17:09:02Z</time>
      </trkpt>
      <trkpt lat="48.09367" lon="7.31232">
        <ele>220.76</ele>
        <time>2011-05-20T17:09:10Z</time>
      </trkpt>
      <trkpt lat="48.09367" lon="7.31226">
        <ele>220.28</ele>
        <time>2011-05-20T17:09:11Z</time>
      </trkpt>
      <trkpt lat="48.0937" lon="7.31175">
        <ele>221.24</ele>
        <time>2011-05-20T17:09:20Z</time>
      </trkpt>
      <trkpt lat="48.09384" lon="7.31157">
        <ele>221.24</ele>
        <time>2011-05-20T17:09:27Z</time>
      </trkpt>
      <trkpt lat="48.09406" lon="7.31154">
        <ele>220.76</ele>
        <time>2011-05-20T17:09:33Z</time>
      </trkpt>
      <trkpt lat="48.09439" lon="7.3115">
        <ele>220.76</ele>
        <time>2011-05-20T17:09:40Z</time>
      </trkpt>
      <trkpt lat="48.09444" lon="7.31151">
        <ele>220.28</ele>
        <time>2011-05-20T17:09:41Z</time>
      </trkpt>
      <trkpt lat="48.09487" lon="7.31152">
        <ele>220.28</ele>
        <time>2011-05-20T17:09:49Z</time>
      </trkpt>
      <trkpt lat="48.09491" lon="7.31151">
        <ele>219.8</ele>
        <time>2011-05-20T17:09:50Z</time>
      </trkpt>
      <trkpt lat="48.09496" lon="7.31148">
        <ele>220.28</ele>
        <time>2011-05-20T17:09:51Z</time>
      </trkpt>
      <trkpt lat="48.09499" lon="7.31145">
        <ele>220.76</ele>
        <time>2011-05-20T17:09:52Z</time>
      </trkpt>
      <trkpt lat="48.09502" lon="7.3114">
        <ele>220.28</ele>
        <time>2011-05-20T17:09:53Z</time>
      </trkpt>
      <trkpt lat="48.09504" lon="7.31136">
        <ele>220.28</ele>
        <time>2011-05-20T17:09:54Z</time>
      </trkpt>
      <trkpt lat="48.09506" lon="7.31132">
        <ele>220.28</ele>
        <time>2011-05-20T17:09:55Z</time>
      </trkpt>
      <trkpt lat="48.09507" lon="7.31127">
        <ele>220.28</ele>
        <time>2011-05-20T17:09:56Z</time>
      </trkpt>
      <trkpt lat="48.09509" lon="7.31122">
        <ele>220.28</ele>
        <time>2011-05-20T17:09:57Z</time>
      </trkpt>
      <trkpt lat="48.09509" lon="7.31116">
        <ele>220.28</ele>
        <time>2011-05-20T17:09:58Z</time>
      </trkpt>
      <trkpt lat="48.0951" lon="7.31111">
        <ele>220.28</ele>
        <time>2011-05-20T17:09:59Z</time>
      </trkpt>
      <trkpt lat="48.0951" lon="7.31106">
        <ele>219.8</ele>
        <time>2011-05-20T17:10:00Z</time>
      </trkpt>
      <trkpt lat="48.09513" lon="7.31077">
        <ele>219.8</ele>
        <time>2011-05-20T17:10:06Z</time>
      </trkpt>
      <trkpt lat="48.09528" lon="7.31062">
        <ele>219.8</ele>
        <time>2011-05-20T17:10:12Z</time>
      </trkpt>
      <trkpt lat="48.0955" lon="7.31058">
        <ele>219.32</ele>
        <time>2011-05-20T17:10:17Z</time>
      </trkpt>
      <trkpt lat="48.09559" lon="7.31055">
        <ele>219.32</ele>
        <time>2011-05-20T17:10:19Z</time>
      </trkpt>
      <trkpt lat="48.09603" lon="7.31048">
        <ele>218.84</ele>
        <time>2011-05-20T17:10:29Z</time>
      </trkpt>
      <trkpt lat="48.09636" lon="7.31036">
        <ele>218.84</ele>
        <time>2011-05-20T17:10:37Z</time>
      </trkpt>
      <trkpt lat="48.09667" lon="7.31044">
        <ele>218.84</ele>
        <time>2011-05-20T17:10:45Z</time>
      </trkpt>
      <trkpt lat="48.09686" lon="7.31079">
        <ele>218.36</ele>
        <time>2011-05-20T17:10:52Z</time>
      </trkpt>
      <trkpt lat="48.097" lon="7.31117">
        <ele>218.36</ele>
        <time>2011-05-20T17:10:59Z</time>
      </trkpt>
      <trkpt lat="48.09722" lon="7.31171">
        <ele>218.84</ele>
        <time>2011-05-20T17:11:09Z</time>
      </trkpt>
      <trkpt lat="48.09738" lon="7.31213">
        <ele>216.43</ele>
        <time>2011-05-20T17:11:16Z</time>
      </trkpt>
      <trkpt lat="48.09748" lon="7.31236">
        <ele>215.47</ele>
        <time>2011-05-20T17:11:19Z</time>
      </trkpt>
      <trkpt lat="48.09766" lon="7.31287">
        <ele>215.95</ele>
        <time>2011-05-20T17:11:25Z</time>
      </trkpt>
      <trkpt lat="48.09773" lon="7.31303">
        <ele>217.4</ele>
        <time>2011-05-20T17:11:28Z</time>
      </trkpt>
      <trkpt lat="48.09787" lon="7.31322">
        <ele>216.91</ele>
        <time>2011-05-20T17:11:32Z</time>
      </trkpt>
      <trkpt lat="48.09811" lon="7.31373">
        <ele>216.91</ele>
        <time>2011-05-20T17:11:40Z</time>
      </trkpt>
      <trkpt lat="48.0982" lon="7.31392">
        <ele>216.43</ele>
        <time>2011-05-20T17:11:43Z</time>
      </trkpt>
      <trkpt lat="48.09848" lon="7.31445">
        <ele>215.47</ele>
        <time>2011-05-20T17:11:52Z</time>
      </trkpt>
      <trkpt lat="48.09873" lon="7.31498">
        <ele>214.99</ele>
        <time>2011-05-20T17:12:01Z</time>
      </trkpt>
      <trkpt lat="48.09876" lon="7.31504">
        <ele>215.47</ele>
        <time>2011-05-20T17:12:02Z</time>
      </trkpt>
      <trkpt lat="48.0988" lon="7.31517">
        <ele>215.47</ele>
        <time>2011-05-20T17:12:04Z</time>
      </trkpt>
      <trkpt lat="48.09905" lon="7.31574">
        <ele>214.51</ele>
        <time>2011-05-20T17:12:13Z</time>
      </trkpt>
      <trkpt lat="48.09915" lon="7.316">
        <ele>214.99</ele>
        <time>2011-05-20T17:12:17Z</time>
      </trkpt>
      <trkpt lat="48.09945" lon="7.3166">
        <ele>214.51</ele>
        <time>2011-05-20T17:12:27Z</time>
      </trkpt>
      <trkpt lat="48.09977" lon="7.31698">
        <ele>213.55</ele>
        <time>2011-05-20T17:12:35Z</time>
      </trkpt>
      <trkpt lat="48.09998" lon="7.31718">
        <ele>214.03</ele>
        <time>2011-05-20T17:12:41Z</time>
      </trkpt>
      <trkpt lat="48.10014" lon="7.31705">
        <ele>214.03</ele>
        <time>2011-05-20T17:12:47Z</time>
      </trkpt>
      <trkpt lat="48.10025" lon="7.3167">
        <ele>214.03</ele>
        <time>2011-05-20T17:12:54Z</time>
      </trkpt>
      <trkpt lat="48.10031" lon="7.31642">
        <ele>214.51</ele>
        <time>2011-05-20T17:12:59Z</time>
      </trkpt>
      <trkpt lat="48.10035" lon="7.31616">
        <ele>215.95</ele>
        <time>2011-05-20T17:13:04Z</time>
      </trkpt>
      <trkpt lat="48.10036" lon="7.31603">
        <ele>215.95</ele>
        <time>2011-05-20T17:13:06Z</time>
      </trkpt>
      <trkpt lat="48.10037" lon="7.31582">
        <ele>216.91</ele>
        <time>2011-05-20T17:13:09Z</time>
      </trkpt>
      <trkpt lat="48.10049" lon="7.31543">
        <ele>217.4</ele>
        <time>2011-05-20T17:13:16Z</time>
      </trkpt>
      <trkpt lat="48.10056" lon="7.31528">
        <ele>221.24</ele>
        <time>2011-05-20T17:13:19Z</time>
      </trkpt>
      <trkpt lat="48.1006" lon="7.31517">
        <ele>217.88</ele>
        <time>2011-05-20T17:13:21Z</time>
      </trkpt>
      <trkpt lat="48.10071" lon="7.31482">
        <ele>216.91</ele>
        <time>2011-05-20T17:13:27Z</time>
      </trkpt>
      <trkpt lat="48.10084" lon="7.31422">
        <ele>216.43</ele>
        <time>2011-05-20T17:13:37Z</time>
      </trkpt>
      <trkpt lat="48.10098" lon="7.31358">
        <ele>215.47</ele>
        <time>2011-05-20T17:13:47Z</time>
      </trkpt>
      <trkpt lat="48.10102" lon="7.31338">
        <ele>215.47</ele>
        <time>2011-05-20T17:13:50Z</time>
      </trkpt>
      <trkpt lat="48.10116" lon="7.313">
        <ele>214.51</ele>
        <time>2011-05-20T17:13:58Z</time>
      </trkpt>
      <trkpt lat="48.10143" lon="7.31319">
        <ele>214.03</ele>
        <time>2011-05-20T17:14:05Z</time>
      </trkpt>
      <trkpt lat="48.10175" lon="7.31316">
        <ele>214.51</ele>
        <time>2011-05-20T17:14:12Z</time>
      </trkpt>
      <trkpt lat="48.10209" lon="7.31269">
        <ele>213.55</ele>
        <time>2011-05-20T17:14:22Z</time>
      </trkpt>
      <trkpt lat="48.10235" lon="7.31225">
        <ele>214.51</ele>
        <time>2011-05-20T17:14:31Z</time>
      </trkpt>
      <trkpt lat="48.10249" lon="7.31199">
        <ele>213.55</ele>
        <time>2011-05-20T17:14:36Z</time>
      </trkpt>
      <trkpt lat="48.10263" lon="7.31151">
        <ele>213.55</ele>
        <time>2011-05-20T17:14:44Z</time>
      </trkpt>
      <trkpt lat="48.10267" lon="7.31132">
        <ele>214.51</ele>
        <time>2011-05-20T17:14:47Z</time>
      </trkpt>
      <trkpt lat="48.10283" lon="7.31082">
        <ele>214.03</ele>
        <time>2011-05-20T17:14:56Z</time>
      </trkpt>
      <trkpt lat="48.10287" lon="7.31071">
        <ele>213.55</ele>
        <time>2011-05-20T17:14:58Z</time>
      </trkpt>
      <trkpt lat="48.10301" lon="7.31013">
        <ele>213.55</ele>
        <time>2011-05-20T17:15:07Z</time>
      </trkpt>
      <trkpt lat="48.10318" lon="7.30948">
        <ele>213.07</ele>
        <time>2011-05-20T17:15:17Z</time>
      </trkpt>
      <trkpt lat="48.10333" lon="7.30885">
        <ele>213.55</ele>
        <time>2011-05-20T17:15:27Z</time>
      </trkpt>
      <trkpt lat="48.10344" lon="7.30817">
        <ele>213.55</ele>
        <time>2011-05-20T17:15:37Z</time>
      </trkpt>
      <trkpt lat="48.10355" lon="7.3077">
        <ele>213.55</ele>
        <time>2011-05-20T17:15:44Z</time>
      </trkpt>
      <trkpt lat="48.10383" lon="7.30711">
        <ele>213.07</ele>
        <time>2011-05-20T17:15:54Z</time>
      </trkpt>
      <trkpt lat="48.10407" lon="7.30683">
        <ele>213.07</ele>
        <time>2011-05-20T17:16:01Z</time>
      </trkpt>
      <trkpt lat="48.10415" lon="7.30677">
        <ele>213.55</ele>
        <time>2011-05-20T17:16:03Z</time>
      </trkpt>
      <trkpt lat="48.10441" lon="7.30678">
        <ele>213.07</ele>
        <time>2011-05-20T17:16:09Z</time>
      </trkpt>
      <trkpt lat="48.10486" lon="7.30706">
        <ele>213.07</ele>
        <time>2011-05-20T17:16:19Z</time>
      </trkpt>
      <trkpt lat="48.10536" lon="7.30731">
        <ele>212.11</ele>
        <time>2011-05-20T17:16:29Z</time>
      </trkpt>
      <trkpt lat="48.10565" lon="7.30745">
        <ele>212.11</ele>
        <time>2011-05-20T17:16:35Z</time>
      </trkpt>
      <trkpt lat="48.10606" lon="7.30778">
        <ele>211.15</ele>
        <time>2011-05-20T17:16:44Z</time>
      </trkpt>
      <trkpt lat="48.10644" lon="7.30805">
        <ele>210.67</ele>
        <time>2011-05-20T17:16:52Z</time>
      </trkpt>
      <trkpt lat="48.1068" lon="7.30833">
        <ele>210.19</ele>
        <time>2011-05-20T17:17:00Z</time>
      </trkpt>
      <trkpt lat="48.10723" lon="7.30853">
        <ele>209.22</ele>
        <time>2011-05-20T17:17:09Z</time>
      </trkpt>
      <trkpt lat="48.10757" lon="7.30869">
        <ele>209.22</ele>
        <time>2011-05-20T17:17:16Z</time>
      </trkpt>
      <trkpt lat="48.10765" lon="7.30878">
        <ele>209.22</ele>
        <time>2011-05-20T17:17:18Z</time>
      </trkpt>
      <trkpt lat="48.10811" lon="7.30915">
        <ele>209.22</ele>
        <time>2011-05-20T17:17:28Z</time>
      </trkpt>
      <trkpt lat="48.10855" lon="7.30947">
        <ele>208.74</ele>
        <time>2011-05-20T17:17:37Z</time>
      </trkpt>
      <trkpt lat="48.10895" lon="7.30978">
        <ele>208.74</ele>
        <time>2011-05-20T17:17:46Z</time>
      </trkpt>
      <trkpt lat="48.10942" lon="7.31012">
        <ele>208.26</ele>
        <time>2011-05-20T17:17:56Z</time>
      </trkpt>
      <trkpt lat="48.10989" lon="7.31046">
        <ele>206.82</ele>
        <time>2011-05-20T17:18:06Z</time>
      </trkpt>
      <trkpt lat="48.11026" lon="7.31075">
        <ele>207.3</ele>
        <time>2011-05-20T17:18:14Z</time>
      </trkpt>
      <trkpt lat="48.11057" lon="7.31101">
        <ele>206.34</ele>
        <time>2011-05-20T17:18:21Z</time>
      </trkpt>
      <trkpt lat="48.11066" lon="7.31107">
        <ele>206.34</ele>
        <time>2011-05-20T17:18:23Z</time>
      </trkpt>
      <trkpt lat="48.1111" lon="7.31121">
        <ele>206.34</ele>
        <time>2011-05-20T17:18:31Z</time>
      </trkpt>
      <trkpt lat="48.11163" lon="7.31137">
        <ele>205.38</ele>
        <time>2011-05-20T17:18:41Z</time>
      </trkpt>
      <trkpt lat="48.11211" lon="7.31149">
        <ele>205.86</ele>
        <time>2011-05-20T17:18:50Z</time>
      </trkpt>
      <trkpt lat="48.11254" lon="7.31159">
        <ele>205.86</ele>
        <time>2011-05-20T17:18:58Z</time>
      </trkpt>
      <trkpt lat="48.11301" lon="7.31167">
        <ele>205.38</ele>
        <time>2011-05-20T17:19:07Z</time>
      </trkpt>
      <trkpt lat="48.11342" lon="7.31174">
        <ele>204.9</ele>
        <time>2011-05-20T17:19:15Z</time>
      </trkpt>
      <trkpt lat="48.1139" lon="7.31197">
        <ele>204.9</ele>
        <time>2011-05-20T17:19:25Z</time>
      </trkpt>
      <trkpt lat="48.11435" lon="7.31223">
        <ele>204.42</ele>
        <time>2011-05-20T17:19:34Z</time>
      </trkpt>
      <trkpt lat="48.11475" lon="7.31245">
        <ele>204.9</ele>
        <time>2011-05-20T17:19:42Z</time>
      </trkpt>
      <trkpt lat="48.11525" lon="7.31272">
        <ele>203.94</ele>
        <time>2011-05-20T17:19:52Z</time>
      </trkpt>
      <trkpt lat="48.11565" lon="7.31292">
        <ele>204.42</ele>
        <time>2011-05-20T17:20:00Z</time>
      </trkpt>
      <trkpt lat="48.11603" lon="7.31311">
        <ele>204.42</ele>
        <time>2011-05-20T17:20:08Z</time>
      </trkpt>
      <trkpt lat="48.11643" lon="7.31336">
        <ele>203.94</ele>
        <time>2011-05-20T17:20:17Z</time>
      </trkpt>
      <trkpt lat="48.11678" lon="7.31365">
        <ele>204.42</ele>
        <time>2011-05-20T17:20:25Z</time>
      </trkpt>
      <trkpt lat="48.11706" lon="7.31383">
        <ele>204.42</ele>
        <time>2011-05-20T17:20:32Z</time>
      </trkpt>
      <trkpt lat="48.11739" lon="7.31404">
        <ele>203.46</ele>
        <time>2011-05-20T17:20:40Z</time>
      </trkpt>
      <trkpt lat="48.11767" lon="7.31415">
        <ele>204.9</ele>
        <time>2011-05-20T17:20:46Z</time>
      </trkpt>
      <trkpt lat="48.11812" lon="7.31434">
        <ele>203.94</ele>
        <time>2011-05-20T17:20:56Z</time>
      </trkpt>
      <trkpt lat="48.11852" lon="7.31456">
        <ele>205.38</ele>
        <time>2011-05-20T17:21:05Z</time>
      </trkpt>
      <trkpt lat="48.11888" lon="7.31477">
        <ele>204.9</ele>
        <time>2011-05-20T17:21:13Z</time>
      </trkpt>
      <trkpt lat="48.11929" lon="7.31499">
        <ele>204.9</ele>
        <time>2011-05-20T17:21:22Z</time>
      </trkpt>
      <trkpt lat="48.11969" lon="7.31516">
        <ele>204.9</ele>
        <time>2011-05-20T17:21:31Z</time>
      </trkpt>
      <trkpt lat="48.12002" lon="7.31526">
        <ele>204.9</ele>
        <time>2011-05-20T17:21:39Z</time>
      </trkpt>
      <trkpt lat="48.12009" lon="7.31546">
        <ele>204.9</ele>
        <time>2011-05-20T17:21:44Z</time>
      </trkpt>
      <trkpt lat="48.12019" lon="7.31563">
        <ele>205.38</ele>
        <time>2011-05-20T17:21:48Z</time>
      </trkpt>
      <trkpt lat="48.12023" lon="7.31565">
        <ele>205.38</ele>
        <time>2011-05-20T17:21:49Z</time>
      </trkpt>
      <trkpt lat="48.12061" lon="7.31578">
        <ele>204.42</ele>
        <time>2011-05-20T17:21:58Z</time>
      </trkpt>
      <trkpt lat="48.12089" lon="7.31587">
        <ele>204.42</ele>
        <time>2011-05-20T17:22:04Z</time>
      </trkpt>
      <trkpt lat="48.12117" lon="7.31595">
        <ele>204.42</ele>
        <time>2011-05-20T17:22:10Z</time>
      </trkpt>
      <trkpt lat="48.12149" lon="7.31606">
        <ele>205.38</ele>
        <time>2011-05-20T17:22:17Z</time>
      </trkpt>
      <trkpt lat="48.12186" lon="7.31619">
        <ele>204.9</ele>
        <time>2011-05-20T17:22:25Z</time>
      </trkpt>
      <trkpt lat="48.12229" lon="7.31637">
        <ele>204.9</ele>
        <time>2011-05-20T17:22:34Z</time>
      </trkpt>
      <trkpt lat="48.1226" lon="7.31649">
        <ele>203.94</ele>
        <time>2011-05-20T17:22:41Z</time>
      </trkpt>
      <trkpt lat="48.12306" lon="7.31667">
        <ele>205.38</ele>
        <time>2011-05-20T17:22:52Z</time>
      </trkpt>
      <trkpt lat="48.12343" lon="7.31681">
        <ele>204.9</ele>
        <time>2011-05-20T17:23:01Z</time>
      </trkpt>
      <trkpt lat="48.1238" lon="7.31694">
        <ele>205.38</ele>
        <time>2011-05-20T17:23:10Z</time>
      </trkpt>
      <trkpt lat="48.12396" lon="7.317">
        <ele>205.38</ele>
        <time>2011-05-20T17:23:14Z</time>
      </trkpt>
      <trkpt lat="48.12397" lon="7.31717">
        <ele>205.86</ele>
        <time>2011-05-20T17:23:18Z</time>
      </trkpt>
      <trkpt lat="48.12383" lon="7.31786">
        <ele>204.9</ele>
        <time>2011-05-20T17:23:29Z</time>
      </trkpt>
      <trkpt lat="48.1237" lon="7.31851">
        <ele>204.42</ele>
        <time>2011-05-20T17:23:38Z</time>
      </trkpt>
      <trkpt lat="48.12363" lon="7.31882">
        <ele>203.46</ele>
        <time>2011-05-20T17:23:42Z</time>
      </trkpt>
      <trkpt lat="48.12357" lon="7.31912">
        <ele>203.46</ele>
        <time>2011-05-20T17:23:46Z</time>
      </trkpt>
      <trkpt lat="48.12351" lon="7.31951">
        <ele>202.98</ele>
        <time>2011-05-20T17:23:51Z</time>
      </trkpt>
      <trkpt lat="48.12336" lon="7.32023">
        <ele>202.49</ele>
        <time>2011-05-20T17:24:01Z</time>
      </trkpt>
      <trkpt lat="48.12328" lon="7.32062">
        <ele>202.01</ele>
        <time>2011-05-20T17:24:06Z</time>
      </trkpt>
      <trkpt lat="48.12318" lon="7.32116">
        <ele>202.01</ele>
        <time>2011-05-20T17:24:13Z</time>
      </trkpt>
      <trkpt lat="48.12303" lon="7.32186">
        <ele>201.53</ele>
        <time>2011-05-20T17:24:23Z</time>
      </trkpt>
      <trkpt lat="48.12299" lon="7.32199">
        <ele>201.53</ele>
        <time>2011-05-20T17:24:25Z</time>
      </trkpt>
      <trkpt lat="48.12301" lon="7.32222">
        <ele>201.53</ele>
        <time>2011-05-20T17:24:29Z</time>
      </trkpt>
      <trkpt lat="48.12304" lon="7.32224">
        <ele>201.53</ele>
        <time>2011-05-20T17:24:30Z</time>
      </trkpt>
      <trkpt lat="48.12337" lon="7.32231">
        <ele>202.01</ele>
        <time>2011-05-20T17:24:38Z</time>
      </trkpt>
      <trkpt lat="48.12375" lon="7.32238">
        <ele>202.01</ele>
        <time>2011-05-20T17:24:47Z</time>
      </trkpt>
      <trkpt lat="48.12415" lon="7.32245">
        <ele>201.53</ele>
        <time>2011-05-20T17:24:56Z</time>
      </trkpt>
      <trkpt lat="48.12455" lon="7.32251">
        <ele>200.57</ele>
        <time>2011-05-20T17:25:05Z</time>
      </trkpt>
      <trkpt lat="48.12499" lon="7.3226">
        <ele>201.53</ele>
        <time>2011-05-20T17:25:15Z</time>
      </trkpt>
      <trkpt lat="48.1251" lon="7.32262">
        <ele>202.01</ele>
        <time>2011-05-20T17:25:18Z</time>
      </trkpt>
      <trkpt lat="48.1252" lon="7.32238">
        <ele>201.53</ele>
        <time>2011-05-20T17:25:24Z</time>
      </trkpt>
      <trkpt lat="48.12525" lon="7.32184">
        <ele>201.53</ele>
        <time>2011-05-20T17:25:34Z</time>
      </trkpt>
      <trkpt lat="48.12528" lon="7.32169">
        <ele>202.49</ele>
        <time>2011-05-20T17:25:37Z</time>
      </trkpt>
      <trkpt lat="48.12547" lon="7.32157">
        <ele>202.01</ele>
        <time>2011-05-20T17:25:44Z</time>
      </trkpt>
      <trkpt lat="48.12571" lon="7.32167">
        <ele>201.53</ele>
        <time>2011-05-20T17:25:50Z</time>
      </trkpt>
      <trkpt lat="48.12624" lon="7.32178">
        <ele>202.01</ele>
        <time>2011-05-20T17:26:02Z</time>
      </trkpt>
      <trkpt lat="48.12646" lon="7.32182">
        <ele>201.53</ele>
        <time>2011-05-20T17:26:07Z</time>
      </trkpt>
      <trkpt lat="48.12679" lon="7.32186">
        <ele>202.01</ele>
        <time>2011-05-20T17:26:15Z</time>
      </trkpt>
      <trkpt lat="48.12718" lon="7.32194">
        <ele>202.01</ele>
        <time>2011-05-20T17:26:25Z</time>
      </trkpt>
      <trkpt lat="48.12731" lon="7.32215">
        <ele>202.98</ele>
        <time>2011-05-20T17:26:32Z</time>
      </trkpt>
      <trkpt lat="48.12713" lon="7.32258">
        <ele>202.49</ele>
        <time>2011-05-20T17:26:40Z</time>
      </trkpt>
      <trkpt lat="48.12693" lon="7.32296">
        <ele>202.49</ele>
        <time>2011-05-20T17:26:47Z</time>
      </trkpt>
      <trkpt lat="48.1267" lon="7.32352">
        <ele>202.49</ele>
        <time>2011-05-20T17:26:57Z</time>
      </trkpt>
      <trkpt lat="48.12658" lon="7.32384">
        <ele>202.01</ele>
        <time>2011-05-20T17:27:03Z</time>
      </trkpt>
      <trkpt lat="48.12631" lon="7.32446">
        <ele>202.01</ele>
        <time>2011-05-20T17:27:14Z</time>
      </trkpt>
      <trkpt lat="48.12613" lon="7.32506">
        <ele>201.53</ele>
        <time>2011-05-20T17:27:23Z</time>
      </trkpt>
      <trkpt lat="48.12606" lon="7.32564">
        <ele>201.05</ele>
        <time>2011-05-20T17:27:31Z</time>
      </trkpt>
      <trkpt lat="48.12599" lon="7.32625">
        <ele>201.05</ele>
        <time>2011-05-20T17:27:39Z</time>
      </trkpt>
      <trkpt lat="48.12591" lon="7.32688">
        <ele>200.57</ele>
        <time>2011-05-20T17:27:47Z</time>
      </trkpt>
      <trkpt lat="48.12577" lon="7.32776">
        <ele>199.13</ele>
        <time>2011-05-20T17:27:58Z</time>
      </trkpt>
      <trkpt lat="48.12563" lon="7.32838">
        <ele>198.17</ele>
        <time>2011-05-20T17:28:06Z</time>
      </trkpt>
      <trkpt lat="48.12551" lon="7.32866">
        <ele>198.65</ele>
        <time>2011-05-20T17:28:10Z</time>
      </trkpt>
      <trkpt lat="48.12525" lon="7.329">
        <ele>198.65</ele>
        <time>2011-05-20T17:28:17Z</time>
      </trkpt>
      <trkpt lat="48.12517" lon="7.3291">
        <ele>198.17</ele>
        <time>2011-05-20T17:28:19Z</time>
      </trkpt>
      <trkpt lat="48.12503" lon="7.32938">
        <ele>198.17</ele>
        <time>2011-05-20T17:28:24Z</time>
      </trkpt>
      <trkpt lat="48.12495" lon="7.32958">
        <ele>198.65</ele>
        <time>2011-05-20T17:28:27Z</time>
      </trkpt>
      <trkpt lat="48.12491" lon="7.32973">
        <ele>198.17</ele>
        <time>2011-05-20T17:28:29Z</time>
      </trkpt>
      <trkpt lat="48.12483" lon="7.32992">
        <ele>198.17</ele>
        <time>2011-05-20T17:28:32Z</time>
      </trkpt>
      <trkpt lat="48.12473" lon="7.33047">
        <ele>197.69</ele>
        <time>2011-05-20T17:28:39Z</time>
      </trkpt>
      <trkpt lat="48.12457" lon="7.33123">
        <ele>197.21</ele>
        <time>2011-05-20T17:28:49Z</time>
      </trkpt>
      <trkpt lat="48.12447" lon="7.33167">
        <ele>196.25</ele>
        <time>2011-05-20T17:28:56Z</time>
      </trkpt>
      <trkpt lat="48.12445" lon="7.33181">
        <ele>196.73</ele>
        <time>2011-05-20T17:28:58Z</time>
      </trkpt>
      <trkpt lat="48.12435" lon="7.33225">
        <ele>196.73</ele>
        <time>2011-05-20T17:29:06Z</time>
      </trkpt>
      <trkpt lat="48.12423" lon="7.33278">
        <ele>196.73</ele>
        <time>2011-05-20T17:29:13Z</time>
      </trkpt>
      <trkpt lat="48.1242" lon="7.33286">
        <ele>196.25</ele>
        <time>2011-05-20T17:29:14Z</time>
      </trkpt>
      <trkpt lat="48.12402" lon="7.3332">
        <ele>196.25</ele>
        <time>2011-05-20T17:29:19Z</time>
      </trkpt>
      <trkpt lat="48.12365" lon="7.33346">
        <ele>196.25</ele>
        <time>2011-05-20T17:29:27Z</time>
      </trkpt>
      <trkpt lat="48.12332" lon="7.33367">
        <ele>198.17</ele>
        <time>2011-05-20T17:29:35Z</time>
      </trkpt>
      <trkpt lat="48.12305" lon="7.33383">
        <ele>196.73</ele>
        <time>2011-05-20T17:29:42Z</time>
      </trkpt>
      <trkpt lat="48.12301" lon="7.33385">
        <ele>197.21</ele>
        <time>2011-05-20T17:29:43Z</time>
      </trkpt>
      <trkpt lat="48.12285" lon="7.33395">
        <ele>200.09</ele>
        <time>2011-05-20T17:29:47Z</time>
      </trkpt>
      <trkpt lat="48.12282" lon="7.33398">
        <ele>184.23</ele>
        <time>2011-05-20T17:29:48Z</time>
      </trkpt>
      <trkpt lat="48.12279" lon="7.334">
        <ele>190</ele>
        <time>2011-05-20T17:29:49Z</time>
      </trkpt>
      <trkpt lat="48.12275" lon="7.33402">
        <ele>199.61</ele>
        <time>2011-05-20T17:29:50Z</time>
      </trkpt>
      <trkpt lat="48.12272" lon="7.33406">
        <ele>196.73</ele>
        <time>2011-05-20T17:29:51Z</time>
      </trkpt>
      <trkpt lat="48.12269" lon="7.33411">
        <ele>206.82</ele>
        <time>2011-05-20T17:29:52Z</time>
      </trkpt>
      <trkpt lat="48.12266" lon="7.33415">
        <ele>196.73</ele>
        <time>2011-05-20T17:29:53Z</time>
      </trkpt>
      <trkpt lat="48.1224" lon="7.33451">
        <ele>196.25</ele>
        <time>2011-05-20T17:30:00Z</time>
      </trkpt>
      <trkpt lat="48.12208" lon="7.33491">
        <ele>195.77</ele>
        <time>2011-05-20T17:30:08Z</time>
      </trkpt>
      <trkpt lat="48.12205" lon="7.33495">
        <ele>196.25</ele>
        <time>2011-05-20T17:30:09Z</time>
      </trkpt>
      <trkpt lat="48.12188" lon="7.33523">
        <ele>195.77</ele>
        <time>2011-05-20T17:30:14Z</time>
      </trkpt>
      <trkpt lat="48.12172" lon="7.33577">
        <ele>195.77</ele>
        <time>2011-05-20T17:30:23Z</time>
      </trkpt>
      <trkpt lat="48.12162" lon="7.33611">
        <ele>195.28</ele>
        <time>2011-05-20T17:30:31Z</time>
      </trkpt>
      <trkpt lat="48.12157" lon="7.33615">
        <ele>202.01</ele>
        <time>2011-05-20T17:30:33Z</time>
      </trkpt>
      <trkpt lat="48.12155" lon="7.33616">
        <ele>196.73</ele>
        <time>2011-05-20T17:30:34Z</time>
      </trkpt>
      <trkpt lat="48.12141" lon="7.33617">
        <ele>196.73</ele>
        <time>2011-05-20T17:30:40Z</time>
      </trkpt>
      <trkpt lat="48.12125" lon="7.3361">
        <ele>196.73</ele>
        <time>2011-05-20T17:30:47Z</time>
      </trkpt>
      <trkpt lat="48.12106" lon="7.33602">
        <ele>197.21</ele>
        <time>2011-05-20T17:30:55Z</time>
      </trkpt>
      <trkpt lat="48.12081" lon="7.33596">
        <ele>197.69</ele>
        <time>2011-05-20T17:31:03Z</time>
      </trkpt>
      <trkpt lat="48.12064" lon="7.33591">
        <ele>197.21</ele>
        <time>2011-05-20T17:31:10Z</time>
      </trkpt>
      <trkpt lat="48.12054" lon="7.33589">
        <ele>201.53</ele>
        <time>2011-05-20T17:31:14Z</time>
      </trkpt>
      <trkpt lat="48.12052" lon="7.33589">
        <ele>198.17</ele>
        <time>2011-05-20T17:31:15Z</time>
      </trkpt>
      <trkpt lat="48.12047" lon="7.33588">
        <ele>193.84</ele>
        <time>2011-05-20T17:31:17Z</time>
      </trkpt>
      <trkpt lat="48.12044" lon="7.33588">
        <ele>198.17</ele>
        <time>2011-05-20T17:31:18Z</time>
      </trkpt>
      <trkpt lat="48.12026" lon="7.33585">
        <ele>197.69</ele>
        <time>2011-05-20T17:31:26Z</time>
      </trkpt>
      <trkpt lat="48.12016" lon="7.33584">
        <ele>197.69</ele>
        <time>2011-05-20T17:31:34Z</time>
      </trkpt>
      <trkpt lat="48.12014" lon="7.33583">
        <ele>197.69</ele>
        <time>2011-05-20T17:31:45Z</time>
      </trkpt>
      <trkpt lat="48.12001" lon="7.33583">
        <ele>198.17</ele>
        <time>2011-05-20T17:31:51Z</time>
      </trkpt>
      <trkpt lat="48.11979" lon="7.33589">
        <ele>198.17</ele>
        <time>2011-05-20T17:31:59Z</time>
      </trkpt>
      <trkpt lat="48.11952" lon="7.33603">
        <ele>197.69</ele>
        <time>2011-05-20T17:32:07Z</time>
      </trkpt>
      <trkpt lat="48.11921" lon="7.33626">
        <ele>198.17</ele>
        <time>2011-05-20T17:32:16Z</time>
      </trkpt>
      <trkpt lat="48.11896" lon="7.33639">
        <ele>198.17</ele>
        <time>2011-05-20T17:32:24Z</time>
      </trkpt>
      <trkpt lat="48.11865" lon="7.3365">
        <ele>197.69</ele>
        <time>2011-05-20T17:32:33Z</time>
      </trkpt>
      <trkpt lat="48.11836" lon="7.33661">
        <ele>197.69</ele>
        <time>2011-05-20T17:32:41Z</time>
      </trkpt>
      <trkpt lat="48.11799" lon="7.33675">
        <ele>198.65</ele>
        <time>2011-05-20T17:32:51Z</time>
      </trkpt>
      <trkpt lat="48.11791" lon="7.33677">
        <ele>198.65</ele>
        <time>2011-05-20T17:32:53Z</time>
      </trkpt>
      <trkpt lat="48.1177" lon="7.33676">
        <ele>197.69</ele>
        <time>2011-05-20T17:32:58Z</time>
      </trkpt>
      <trkpt lat="48.11729" lon="7.33665">
        <ele>198.65</ele>
        <time>2011-05-20T17:33:07Z</time>
      </trkpt>
      <trkpt lat="48.11694" lon="7.33653">
        <ele>198.17</ele>
        <time>2011-05-20T17:33:15Z</time>
      </trkpt>
      <trkpt lat="48.11686" lon="7.33651">
        <ele>193.36</ele>
        <time>2011-05-20T17:33:17Z</time>
      </trkpt>
      <trkpt lat="48.11681" lon="7.33649">
        <ele>196.73</ele>
        <time>2011-05-20T17:33:18Z</time>
      </trkpt>
      <trkpt lat="48.11639" lon="7.33647">
        <ele>198.65</ele>
        <time>2011-05-20T17:33:28Z</time>
      </trkpt>
      <trkpt lat="48.11631" lon="7.33648">
        <ele>198.65</ele>
        <time>2011-05-20T17:33:30Z</time>
      </trkpt>
      <trkpt lat="48.11586" lon="7.33655">
        <ele>199.13</ele>
        <time>2011-05-20T17:33:40Z</time>
      </trkpt>
      <trkpt lat="48.11549" lon="7.3366">
        <ele>198.17</ele>
        <time>2011-05-20T17:33:49Z</time>
      </trkpt>
      <trkpt lat="48.11516" lon="7.33659">
        <ele>198.17</ele>
        <time>2011-05-20T17:33:57Z</time>
      </trkpt>
      <trkpt lat="48.11466" lon="7.33656">
        <ele>198.65</ele>
        <time>2011-05-20T17:34:08Z</time>
      </trkpt>
      <trkpt lat="48.11449" lon="7.33658">
        <ele>198.65</ele>
        <time>2011-05-20T17:34:12Z</time>
      </trkpt>
      <trkpt lat="48.11416" lon="7.33673">
        <ele>199.13</ele>
        <time>2011-05-20T17:34:20Z</time>
      </trkpt>
      <trkpt lat="48.11379" lon="7.33685">
        <ele>197.21</ele>
        <time>2011-05-20T17:34:30Z</time>
      </trkpt>
      <trkpt lat="48.11369" lon="7.33697">
        <ele>199.13</ele>
        <time>2011-05-20T17:34:33Z</time>
      </trkpt>
      <trkpt lat="48.11348" lon="7.33722">
        <ele>198.65</ele>
        <time>2011-05-20T17:34:40Z</time>
      </trkpt>
      <trkpt lat="48.11324" lon="7.33731">
        <ele>199.13</ele>
        <time>2011-05-20T17:34:46Z</time>
      </trkpt>
      <trkpt lat="48.11321" lon="7.33748">
        <ele>198.65</ele>
        <time>2011-05-20T17:34:53Z</time>
      </trkpt>
      <trkpt lat="48.1133" lon="7.33783">
        <ele>199.13</ele>
        <time>2011-05-20T17:35:00Z</time>
      </trkpt>
      <trkpt lat="48.11348" lon="7.33825">
        <ele>198.17</ele>
        <time>2011-05-20T17:35:06Z</time>
      </trkpt>
      <trkpt lat="48.11378" lon="7.3386">
        <ele>198.65</ele>
        <time>2011-05-20T17:35:12Z</time>
      </trkpt>
      <trkpt lat="48.11401" lon="7.33914">
        <ele>197.69</ele>
        <time>2011-05-20T17:35:21Z</time>
      </trkpt>
      <trkpt lat="48.11416" lon="7.33975">
        <ele>197.69</ele>
        <time>2011-05-20T17:35:30Z</time>
      </trkpt>
      <trkpt lat="48.11437" lon="7.3401">
        <ele>198.17</ele>
        <time>2011-05-20T17:35:37Z</time>
      </trkpt>
      <trkpt lat="48.11449" lon="7.34027">
        <ele>197.21</ele>
        <time>2011-05-20T17:35:40Z</time>
      </trkpt>
      <trkpt lat="48.11467" lon="7.34056">
        <ele>196.73</ele>
        <time>2011-05-20T17:35:45Z</time>
      </trkpt>
      <trkpt lat="48.11485" lon="7.34096">
        <ele>197.21</ele>
        <time>2011-05-20T17:35:52Z</time>
      </trkpt>
      <trkpt lat="48.1151" lon="7.34161">
        <ele>196.73</ele>
        <time>2011-05-20T17:36:02Z</time>
      </trkpt>
      <trkpt lat="48.11529" lon="7.3422">
        <ele>196.25</ele>
        <time>2011-05-20T17:36:12Z</time>
      </trkpt>
      <trkpt lat="48.11538" lon="7.34251">
        <ele>197.21</ele>
        <time>2011-05-20T17:36:17Z</time>
      </trkpt>
      <trkpt lat="48.11557" lon="7.34292">
        <ele>196.73</ele>
        <time>2011-05-20T17:36:24Z</time>
      </trkpt>
      <trkpt lat="48.11565" lon="7.34309">
        <ele>196.73</ele>
        <time>2011-05-20T17:36:27Z</time>
      </trkpt>
      <trkpt lat="48.1158" lon="7.34351">
        <ele>196.73</ele>
        <time>2011-05-20T17:36:34Z</time>
      </trkpt>
      <trkpt lat="48.11605" lon="7.34402">
        <ele>195.77</ele>
        <time>2011-05-20T17:36:43Z</time>
      </trkpt>
      <trkpt lat="48.11631" lon="7.34448">
        <ele>194.8</ele>
        <time>2011-05-20T17:36:52Z</time>
      </trkpt>
      <trkpt lat="48.11637" lon="7.34459">
        <ele>195.77</ele>
        <time>2011-05-20T17:36:54Z</time>
      </trkpt>
      <trkpt lat="48.11644" lon="7.34484">
        <ele>195.77</ele>
        <time>2011-05-20T17:36:58Z</time>
      </trkpt>
      <trkpt lat="48.11652" lon="7.3456">
        <ele>194.8</ele>
        <time>2011-05-20T17:37:09Z</time>
      </trkpt>
      <trkpt lat="48.11657" lon="7.34625">
        <ele>195.28</ele>
        <time>2011-05-20T17:37:18Z</time>
      </trkpt>
      <trkpt lat="48.1166" lon="7.34698">
        <ele>194.8</ele>
        <time>2011-05-20T17:37:27Z</time>
      </trkpt>
      <trkpt lat="48.11663" lon="7.34775">
        <ele>193.84</ele>
        <time>2011-05-20T17:37:37Z</time>
      </trkpt>
      <trkpt lat="48.11679" lon="7.34838">
        <ele>193.36</ele>
        <time>2011-05-20T17:37:47Z</time>
      </trkpt>
      <trkpt lat="48.1169" lon="7.34871">
        <ele>193.36</ele>
        <time>2011-05-20T17:37:52Z</time>
      </trkpt>
      <trkpt lat="48.11698" lon="7.34919">
        <ele>193.36</ele>
        <time>2011-05-20T17:37:59Z</time>
      </trkpt>
      <trkpt lat="48.11713" lon="7.34972">
        <ele>192.88</ele>
        <time>2011-05-20T17:38:07Z</time>
      </trkpt>
      <trkpt lat="48.11719" lon="7.34989">
        <ele>193.36</ele>
        <time>2011-05-20T17:38:10Z</time>
      </trkpt>
      <trkpt lat="48.11737" lon="7.3501">
        <ele>193.36</ele>
        <time>2011-05-20T17:38:16Z</time>
      </trkpt>
      <trkpt lat="48.11741" lon="7.35012">
        <ele>193.36</ele>
        <time>2011-05-20T17:38:17Z</time>
      </trkpt>
      <trkpt lat="48.11774" lon="7.35021">
        <ele>190.96</ele>
        <time>2011-05-20T17:38:24Z</time>
      </trkpt>
      <trkpt lat="48.11805" lon="7.35028">
        <ele>190.96</ele>
        <time>2011-05-20T17:38:31Z</time>
      </trkpt>
      <trkpt lat="48.11815" lon="7.35031">
        <ele>192.4</ele>
        <time>2011-05-20T17:38:34Z</time>
      </trkpt>
      <trkpt lat="48.11846" lon="7.35038">
        <ele>191.92</ele>
        <time>2011-05-20T17:38:42Z</time>
      </trkpt>
      <trkpt lat="48.11874" lon="7.35047">
        <ele>192.4</ele>
        <time>2011-05-20T17:38:49Z</time>
      </trkpt>
      <trkpt lat="48.1191" lon="7.35051">
        <ele>192.4</ele>
        <time>2011-05-20T17:38:55Z</time>
      </trkpt>
      <trkpt lat="48.11934" lon="7.35056">
        <ele>192.4</ele>
        <time>2011-05-20T17:38:59Z</time>
      </trkpt>
      <trkpt lat="48.11985" lon="7.35081">
        <ele>192.88</ele>
        <time>2011-05-20T17:39:09Z</time>
      </trkpt>
      <trkpt lat="48.12012" lon="7.35099">
        <ele>191.92</ele>
        <time>2011-05-20T17:39:15Z</time>
      </trkpt>
      <trkpt lat="48.12048" lon="7.35114">
        <ele>191.92</ele>
        <time>2011-05-20T17:39:23Z</time>
      </trkpt>
      <trkpt lat="48.12078" lon="7.35125">
        <ele>191.44</ele>
        <time>2011-05-20T17:39:30Z</time>
      </trkpt>
      <trkpt lat="48.12119" lon="7.35137">
        <ele>191.92</ele>
        <time>2011-05-20T17:39:38Z</time>
      </trkpt>
      <trkpt lat="48.12144" lon="7.35147">
        <ele>192.88</ele>
        <time>2011-05-20T17:39:44Z</time>
      </trkpt>
      <trkpt lat="48.12176" lon="7.35163">
        <ele>191.92</ele>
        <time>2011-05-20T17:39:51Z</time>
      </trkpt>
      <trkpt lat="48.12201" lon="7.35178">
        <ele>192.4</ele>
        <time>2011-05-20T17:39:58Z</time>
      </trkpt>
      <trkpt lat="48.12217" lon="7.35191">
        <ele>192.4</ele>
        <time>2011-05-20T17:40:04Z</time>
      </trkpt>
      <trkpt lat="48.12233" lon="7.35209">
        <ele>191.92</ele>
        <time>2011-05-20T17:40:10Z</time>
      </trkpt>
      <trkpt lat="48.12244" lon="7.35247">
        <ele>191.92</ele>
        <time>2011-05-20T17:40:17Z</time>
      </trkpt>
      <trkpt lat="48.12249" lon="7.35291">
        <ele>192.4</ele>
        <time>2011-05-20T17:40:24Z</time>
      </trkpt>
      <trkpt lat="48.12257" lon="7.35335">
        <ele>191.92</ele>
        <time>2011-05-20T17:40:31Z</time>
      </trkpt>
      <trkpt lat="48.12271" lon="7.35392">
        <ele>192.88</ele>
        <time>2011-05-20T17:40:40Z</time>
      </trkpt>
      <trkpt lat="48.12276" lon="7.35414">
        <ele>194.32</ele>
        <time>2011-05-20T17:40:43Z</time>
      </trkpt>
      <trkpt lat="48.12282" lon="7.35487">
        <ele>196.73</ele>
        <time>2011-05-20T17:40:51Z</time>
      </trkpt>
      <trkpt lat="48.12282" lon="7.35496">
        <ele>197.69</ele>
        <time>2011-05-20T17:40:52Z</time>
      </trkpt>
      <trkpt lat="48.1228" lon="7.35542">
        <ele>197.69</ele>
        <time>2011-05-20T17:40:58Z</time>
      </trkpt>
      <trkpt lat="48.12274" lon="7.35592">
        <ele>196.25</ele>
        <time>2011-05-20T17:41:05Z</time>
      </trkpt>
      <trkpt lat="48.12269" lon="7.35625">
        <ele>193.84</ele>
        <time>2011-05-20T17:41:09Z</time>
      </trkpt>
      <trkpt lat="48.12262" lon="7.35676">
        <ele>191.92</ele>
        <time>2011-05-20T17:41:14Z</time>
      </trkpt>
      <trkpt lat="48.1226" lon="7.35749">
        <ele>189.52</ele>
        <time>2011-05-20T17:41:20Z</time>
      </trkpt>
      <trkpt lat="48.12267" lon="7.3581">
        <ele>188.56</ele>
        <time>2011-05-20T17:41:25Z</time>
      </trkpt>
      <trkpt lat="48.12279" lon="7.35892">
        <ele>188.56</ele>
        <time>2011-05-20T17:41:33Z</time>
      </trkpt>
      <trkpt lat="48.12288" lon="7.35954">
        <ele>188.08</ele>
        <time>2011-05-20T17:41:40Z</time>
      </trkpt>
      <trkpt lat="48.12291" lon="7.35972">
        <ele>187.59</ele>
        <time>2011-05-20T17:41:42Z</time>
      </trkpt>
      <trkpt lat="48.12294" lon="7.35988">
        <ele>190.96</ele>
        <time>2011-05-20T17:41:44Z</time>
      </trkpt>
      <trkpt lat="48.12297" lon="7.35996">
        <ele>188.08</ele>
        <time>2011-05-20T17:41:45Z</time>
      </trkpt>
      <trkpt lat="48.12304" lon="7.36011">
        <ele>187.59</ele>
        <time>2011-05-20T17:41:47Z</time>
      </trkpt>
      <trkpt lat="48.12317" lon="7.36039">
        <ele>188.08</ele>
        <time>2011-05-20T17:41:51Z</time>
      </trkpt>
      <trkpt lat="48.12331" lon="7.3607">
        <ele>187.59</ele>
        <time>2011-05-20T17:41:56Z</time>
      </trkpt>
      <trkpt lat="48.12343" lon="7.36095">
        <ele>187.11</ele>
        <time>2011-05-20T17:42:00Z</time>
      </trkpt>
      <trkpt lat="48.12353" lon="7.36119">
        <ele>187.11</ele>
        <time>2011-05-20T17:42:04Z</time>
      </trkpt>
      <trkpt lat="48.1236" lon="7.36137">
        <ele>187.59</ele>
        <time>2011-05-20T17:42:07Z</time>
      </trkpt>
      <trkpt lat="48.12367" lon="7.36174">
        <ele>188.08</ele>
        <time>2011-05-20T17:42:14Z</time>
      </trkpt>
      <trkpt lat="48.12368" lon="7.36185">
        <ele>188.08</ele>
        <time>2011-05-20T17:42:19Z</time>
      </trkpt>
      <trkpt lat="48.12368" lon="7.36185">
        <ele>188.08</ele>
        <time>2011-05-20T17:42:25Z</time>
      </trkpt>
      <trkpt lat="48.12368" lon="7.36185">
        <ele>188.08</ele>
        <time>2011-05-20T17:42:29Z</time>
      </trkpt>
      <trkpt lat="48.12368" lon="7.36184">
        <ele>186.63</ele>
        <time>2011-05-20T17:42:35Z</time>
      </trkpt>
      <trkpt lat="48.12367" lon="7.36184">
        <ele>187.11</ele>
        <time>2011-05-20T17:42:54Z</time>
      </trkpt>
      <trkpt lat="48.12367" lon="7.36184">
        <ele>187.11</ele>
        <time>2011-05-20T17:43:13Z</time>
      </trkpt>
      <trkpt lat="48.12367" lon="7.36184">
        <ele>187.11</ele>
        <time>2011-05-20T17:43:27Z</time>
      </trkpt>
      <trkpt lat="48.12367" lon="7.36184">
        <ele>187.59</ele>
        <time>2011-05-20T17:43:36Z</time>
      </trkpt>
      <trkpt lat="48.12366" lon="7.36183">
        <ele>188.08</ele>
        <time>2011-05-20T17:43:42Z</time>
      </trkpt>
      <trkpt lat="48.12366" lon="7.36183">
        <ele>188.08</ele>
        <time>2011-05-20T17:43:52Z</time>
      </trkpt>
      <trkpt lat="48.12366" lon="7.36183">
        <ele>187.59</ele>
        <time>2011-05-20T17:44:04Z</time>
      </trkpt>
      <trkpt lat="48.12366" lon="7.36183">
        <ele>188.56</ele>
        <time>2011-05-20T17:44:17Z</time>
      </trkpt>
      <trkpt lat="48.12366" lon="7.36183">
        <ele>187.59</ele>
        <time>2011-05-20T17:44:30Z</time>
      </trkpt>
      <trkpt lat="48.12366" lon="7.36183">
        <ele>188.08</ele>
        <time>2011-05-20T17:44:36Z</time>
      </trkpt>
      <trkpt lat="48.12366" lon="7.36183">
        <ele>187.59</ele>
        <time>2011-05-20T17:44:47Z</time>
      </trkpt>
      <trkpt lat="48.12366" lon="7.36183">
        <ele>188.08</ele>
        <time>2011-05-20T17:45:02Z</time>
      </trkpt>
      <trkpt lat="48.12367" lon="7.36183">
        <ele>188.08</ele>
        <time>2011-05-20T17:45:10Z</time>
      </trkpt>
      <trkpt lat="48.12367" lon="7.36183">
        <ele>188.56</ele>
        <time>2011-05-20T17:45:25Z</time>
      </trkpt>
      <trkpt lat="48.12367" lon="7.36183">
        <ele>188.56</ele>
        <time>2011-05-20T17:45:44Z</time>
      </trkpt>
      <trkpt lat="48.12367" lon="7.36183">
        <ele>188.56</ele>
        <time>2011-05-20T17:46:00Z</time>
      </trkpt>
      <trkpt lat="48.12367" lon="7.36183">
        <ele>188.08</ele>
        <time>2011-05-20T17:46:15Z</time>
      </trkpt>
      <trkpt lat="48.12367" lon="7.36183">
        <ele>188.08</ele>
        <time>2011-05-20T17:46:29Z</time>
      </trkpt>
      <trkpt lat="48.12367" lon="7.36183">
        <ele>188.08</ele>
        <time>2011-05-20T17:46:45Z</time>
      </trkpt>
      <trkpt lat="48.12367" lon="7.36183">
        <ele>188.08</ele>
        <time>2011-05-20T17:46:58Z</time>
      </trkpt>
      <trkpt lat="48.12367" lon="7.36183">
        <ele>188.08</ele>
        <time>2011-05-20T17:47:14Z</time>
      </trkpt>
      <trkpt lat="48.12367" lon="7.36183">
        <ele>187.59</ele>
        <time>2011-05-20T17:47:20Z</time>
      </trkpt>
      <trkpt lat="48.12372" lon="7.36197">
        <ele>188.08</ele>
        <time>2011-05-20T17:47:27Z</time>
      </trkpt>
      <trkpt lat="48.1238" lon="7.36223">
        <ele>187.59</ele>
        <time>2011-05-20T17:47:36Z</time>
      </trkpt>
      <trkpt lat="48.12388" lon="7.36246">
        <ele>188.08</ele>
        <time>2011-05-20T17:47:43Z</time>
      </trkpt>
      <trkpt lat="48.12394" lon="7.36279">
        <ele>187.59</ele>
        <time>2011-05-20T17:47:50Z</time>
      </trkpt>
      <trkpt lat="48.12402" lon="7.36318">
        <ele>187.59</ele>
        <time>2011-05-20T17:47:59Z</time>
      </trkpt>
      <trkpt lat="48.12409" lon="7.36354">
        <ele>187.59</ele>
        <time>2011-05-20T17:48:07Z</time>
      </trkpt>
      <trkpt lat="48.12415" lon="7.36385">
        <ele>187.59</ele>
        <time>2011-05-20T17:48:14Z</time>
      </trkpt>
      <trkpt lat="48.12421" lon="7.36425">
        <ele>186.63</ele>
        <time>2011-05-20T17:48:22Z</time>
      </trkpt>
      <trkpt lat="48.12431" lon="7.36453">
        <ele>187.11</ele>
        <time>2011-05-20T17:48:29Z</time>
      </trkpt>
      <trkpt lat="48.12456" lon="7.36452">
        <ele>187.59</ele>
        <time>2011-05-20T17:48:38Z</time>
      </trkpt>
      <trkpt lat="48.12466" lon="7.36438">
        <ele>187.59</ele>
        <time>2011-05-20T17:48:46Z</time>
      </trkpt>
      <trkpt lat="48.12466" lon="7.36449">
        <ele>187.59</ele>
        <time>2011-05-20T17:48:51Z</time>
      </trkpt>
      <trkpt lat="48.1246" lon="7.36488">
        <ele>186.63</ele>
        <time>2011-05-20T17:49:01Z</time>
      </trkpt>
      <trkpt lat="48.12452" lon="7.36517">
        <ele>186.63</ele>
        <time>2011-05-20T17:49:04Z</time>
      </trkpt>
      <trkpt lat="48.12447" lon="7.36578">
        <ele>187.59</ele>
        <time>2011-05-20T17:49:11Z</time>
      </trkpt>
      <trkpt lat="48.12442" lon="7.36572">
        <ele>188.56</ele>
        <time>2011-05-20T17:49:16Z</time>
      </trkpt>
      <trkpt lat="48.12435" lon="7.36541">
        <ele>188.56</ele>
        <time>2011-05-20T17:49:24Z</time>
      </trkpt>
      <trkpt lat="48.12415" lon="7.3654">
        <ele>188.08</ele>
        <time>2011-05-20T17:49:32Z</time>
      </trkpt>
      <trkpt lat="48.12409" lon="7.36542">
        <ele>188.08</ele>
        <time>2011-05-20T17:49:34Z</time>
      </trkpt>
      <trkpt lat="48.12386" lon="7.36541">
        <ele>187.59</ele>
        <time>2011-05-20T17:49:41Z</time>
      </trkpt>
      <trkpt lat="48.1236" lon="7.36544">
        <ele>187.59</ele>
        <time>2011-05-20T17:49:48Z</time>
      </trkpt>
      <trkpt lat="48.12325" lon="7.36558">
        <ele>187.59</ele>
        <time>2011-05-20T17:49:57Z</time>
      </trkpt>
      <trkpt lat="48.12294" lon="7.3657">
        <ele>187.11</ele>
        <time>2011-05-20T17:50:05Z</time>
      </trkpt>
      <trkpt lat="48.12261" lon="7.36584">
        <ele>187.11</ele>
        <time>2011-05-20T17:50:13Z</time>
      </trkpt>
      <trkpt lat="48.12233" lon="7.36603">
        <ele>187.59</ele>
        <time>2011-05-20T17:50:20Z</time>
      </trkpt>
      <trkpt lat="48.1222" lon="7.36611">
        <ele>187.11</ele>
        <time>2011-05-20T17:50:23Z</time>
      </trkpt>
      <trkpt lat="48.12198" lon="7.36626">
        <ele>187.11</ele>
        <time>2011-05-20T17:50:28Z</time>
      </trkpt>
      <trkpt lat="48.12171" lon="7.3665">
        <ele>187.59</ele>
        <time>2011-05-20T17:50:35Z</time>
      </trkpt>
      <trkpt lat="48.12145" lon="7.36683">
        <ele>186.63</ele>
        <time>2011-05-20T17:50:43Z</time>
      </trkpt>
      <trkpt lat="48.12117" lon="7.36718">
        <ele>186.63</ele>
        <time>2011-05-20T17:50:51Z</time>
      </trkpt>
      <trkpt lat="48.12114" lon="7.36723">
        <ele>186.63</ele>
        <time>2011-05-20T17:50:52Z</time>
      </trkpt>
      <trkpt lat="48.12111" lon="7.36728">
        <ele>186.63</ele>
        <time>2011-05-20T17:50:53Z</time>
      </trkpt>
      <trkpt lat="48.12108" lon="7.36733">
        <ele>187.11</ele>
        <time>2011-05-20T17:50:54Z</time>
      </trkpt>
      <trkpt lat="48.12105" lon="7.36739">
        <ele>187.11</ele>
        <time>2011-05-20T17:50:55Z</time>
      </trkpt>
      <trkpt lat="48.12103" lon="7.36744">
        <ele>187.11</ele>
        <time>2011-05-20T17:50:56Z</time>
      </trkpt>
      <trkpt lat="48.12087" lon="7.36782">
        <ele>187.11</ele>
        <time>2011-05-20T17:51:03Z</time>
      </trkpt>
      <trkpt lat="48.1208" lon="7.36834">
        <ele>186.63</ele>
        <time>2011-05-20T17:51:12Z</time>
      </trkpt>
      <trkpt lat="48.12066" lon="7.36856">
        <ele>187.11</ele>
        <time>2011-05-20T17:51:18Z</time>
      </trkpt>
      <trkpt lat="48.12062" lon="7.3688">
        <ele>186.63</ele>
        <time>2011-05-20T17:51:24Z</time>
      </trkpt>
      <trkpt lat="48.12074" lon="7.36912">
        <ele>186.63</ele>
        <time>2011-05-20T17:51:30Z</time>
      </trkpt>
      <trkpt lat="48.1209" lon="7.36971">
        <ele>186.63</ele>
        <time>2011-05-20T17:51:40Z</time>
      </trkpt>
      <trkpt lat="48.12104" lon="7.37018">
        <ele>186.63</ele>
        <time>2011-05-20T17:51:48Z</time>
      </trkpt>
      <trkpt lat="48.12109" lon="7.3703">
        <ele>187.11</ele>
        <time>2011-05-20T17:51:50Z</time>
      </trkpt>
      <trkpt lat="48.12121" lon="7.37091">
        <ele>186.15</ele>
        <time>2011-05-20T17:51:59Z</time>
      </trkpt>
      <trkpt lat="48.1213" lon="7.37149">
        <ele>186.63</ele>
        <time>2011-05-20T17:52:08Z</time>
      </trkpt>
      <trkpt lat="48.12133" lon="7.3716">
        <ele>186.15</ele>
        <time>2011-05-20T17:52:10Z</time>
      </trkpt>
      <trkpt lat="48.12133" lon="7.37189">
        <ele>187.11</ele>
        <time>2011-05-20T17:52:16Z</time>
      </trkpt>
      <trkpt lat="48.1213" lon="7.37192">
        <ele>187.11</ele>
        <time>2011-05-20T17:52:17Z</time>
      </trkpt>
      <trkpt lat="48.12117" lon="7.37216">
        <ele>187.11</ele>
        <time>2011-05-20T17:52:22Z</time>
      </trkpt>
      <trkpt lat="48.12095" lon="7.37253">
        <ele>187.11</ele>
        <time>2011-05-20T17:52:30Z</time>
      </trkpt>
      <trkpt lat="48.12087" lon="7.37268">
        <ele>186.63</ele>
        <time>2011-05-20T17:52:33Z</time>
      </trkpt>
      <trkpt lat="48.12073" lon="7.37292">
        <ele>186.63</ele>
        <time>2011-05-20T17:52:38Z</time>
      </trkpt>
      <trkpt lat="48.12057" lon="7.37318">
        <ele>186.63</ele>
        <time>2011-05-20T17:52:43Z</time>
      </trkpt>
      <trkpt lat="48.12045" lon="7.37337">
        <ele>186.63</ele>
        <time>2011-05-20T17:52:47Z</time>
      </trkpt>
      <trkpt lat="48.12017" lon="7.37393">
        <ele>186.63</ele>
        <time>2011-05-20T17:52:57Z</time>
      </trkpt>
      <trkpt lat="48.12009" lon="7.37409">
        <ele>186.63</ele>
        <time>2011-05-20T17:53:00Z</time>
      </trkpt>
      <trkpt lat="48.11998" lon="7.37437">
        <ele>186.63</ele>
        <time>2011-05-20T17:53:06Z</time>
      </trkpt>
      <trkpt lat="48.11985" lon="7.37431">
        <ele>186.63</ele>
        <time>2011-05-20T17:53:11Z</time>
      </trkpt>
      <trkpt lat="48.11963" lon="7.37421">
        <ele>187.11</ele>
        <time>2011-05-20T17:53:18Z</time>
      </trkpt>
      <trkpt lat="48.11931" lon="7.37405">
        <ele>186.63</ele>
        <time>2011-05-20T17:53:27Z</time>
      </trkpt>
      <trkpt lat="48.11898" lon="7.37389">
        <ele>187.11</ele>
        <time>2011-05-20T17:53:36Z</time>
      </trkpt>
      <trkpt lat="48.11887" lon="7.37384">
        <ele>182.79</ele>
        <time>2011-05-20T17:53:39Z</time>
      </trkpt>
      <trkpt lat="48.11884" lon="7.37382">
        <ele>185.19</ele>
        <time>2011-05-20T17:53:40Z</time>
      </trkpt>
      <trkpt lat="48.11876" lon="7.37378">
        <ele>188.56</ele>
        <time>2011-05-20T17:53:42Z</time>
      </trkpt>
      <trkpt lat="48.11841" lon="7.37363">
        <ele>187.11</ele>
        <time>2011-05-20T17:53:52Z</time>
      </trkpt>
      <trkpt lat="48.11811" lon="7.3735">
        <ele>186.63</ele>
        <time>2011-05-20T17:54:01Z</time>
      </trkpt>
      <trkpt lat="48.11797" lon="7.37362">
        <ele>186.63</ele>
        <time>2011-05-20T17:54:06Z</time>
      </trkpt>
      <trkpt lat="48.1179" lon="7.37395">
        <ele>187.11</ele>
        <time>2011-05-20T17:54:12Z</time>
      </trkpt>
      <trkpt lat="48.11772" lon="7.37457">
        <ele>186.63</ele>
        <time>2011-05-20T17:54:23Z</time>
      </trkpt>
      <trkpt lat="48.11766" lon="7.37475">
        <ele>186.63</ele>
        <time>2011-05-20T17:54:26Z</time>
      </trkpt>
      <trkpt lat="48.1176" lon="7.375">
        <ele>187.11</ele>
        <time>2011-05-20T17:54:30Z</time>
      </trkpt>
      <trkpt lat="48.11742" lon="7.37565">
        <ele>186.15</ele>
        <time>2011-05-20T17:54:40Z</time>
      </trkpt>
      <trkpt lat="48.1173" lon="7.37596">
        <ele>185.67</ele>
        <time>2011-05-20T17:54:45Z</time>
      </trkpt>
      <trkpt lat="48.1171" lon="7.3765">
        <ele>186.15</ele>
        <time>2011-05-20T17:54:54Z</time>
      </trkpt>
      <trkpt lat="48.11689" lon="7.37704">
        <ele>186.15</ele>
        <time>2011-05-20T17:55:04Z</time>
      </trkpt>
      <trkpt lat="48.11677" lon="7.3773">
        <ele>186.15</ele>
        <time>2011-05-20T17:55:09Z</time>
      </trkpt>
      <trkpt lat="48.11672" lon="7.3774">
        <ele>185.67</ele>
        <time>2011-05-20T17:55:11Z</time>
      </trkpt>
      <trkpt lat="48.11644" lon="7.37781">
        <ele>185.19</ele>
        <time>2011-05-20T17:55:20Z</time>
      </trkpt>
      <trkpt lat="48.11617" lon="7.3782">
        <ele>186.63</ele>
        <time>2011-05-20T17:55:29Z</time>
      </trkpt>
      <trkpt lat="48.11589" lon="7.37871">
        <ele>185.67</ele>
        <time>2011-05-20T17:55:39Z</time>
      </trkpt>
      <trkpt lat="48.11573" lon="7.37898">
        <ele>186.15</ele>
        <time>2011-05-20T17:55:44Z</time>
      </trkpt>
      <trkpt lat="48.11543" lon="7.37944">
        <ele>186.15</ele>
        <time>2011-05-20T17:55:54Z</time>
      </trkpt>
      <trkpt lat="48.11515" lon="7.37985">
        <ele>186.15</ele>
        <time>2011-05-20T17:56:04Z</time>
      </trkpt>
      <trkpt lat="48.11486" lon="7.38022">
        <ele>186.63</ele>
        <time>2011-05-20T17:56:14Z</time>
      </trkpt>
      <trkpt lat="48.11476" lon="7.38057">
        <ele>186.63</ele>
        <time>2011-05-20T17:56:21Z</time>
      </trkpt>
      <trkpt lat="48.11466" lon="7.38072">
        <ele>186.63</ele>
        <time>2011-05-20T17:56:27Z</time>
      </trkpt>
      <trkpt lat="48.11459" lon="7.38063">
        <ele>186.15</ele>
        <time>2011-05-20T17:56:31Z</time>
      </trkpt>
      <trkpt lat="48.11455" lon="7.38052">
        <ele>184.71</ele>
        <time>2011-05-20T17:56:34Z</time>
      </trkpt>
      <trkpt lat="48.11453" lon="7.38049">
        <ele>184.71</ele>
        <time>2011-05-20T17:56:36Z</time>
      </trkpt>
      <trkpt lat="48.11422" lon="7.37985">
        <ele>185.19</ele>
        <time>2011-05-20T17:56:43Z</time>
      </trkpt>
      <trkpt lat="48.11399" lon="7.37941">
        <ele>186.15</ele>
        <time>2011-05-20T17:56:50Z</time>
      </trkpt>
      <trkpt lat="48.11373" lon="7.37896">
        <ele>187.11</ele>
        <time>2011-05-20T17:57:00Z</time>
      </trkpt>
      <trkpt lat="48.11371" lon="7.37891">
        <ele>188.08</ele>
        <time>2011-05-20T17:57:01Z</time>
      </trkpt>
      <trkpt lat="48.1135" lon="7.37848">
        <ele>187.59</ele>
        <time>2011-05-20T17:57:10Z</time>
      </trkpt>
      <trkpt lat="48.11334" lon="7.37821">
        <ele>186.63</ele>
        <time>2011-05-20T17:57:18Z</time>
      </trkpt>
      <trkpt lat="48.11315" lon="7.37808">
        <ele>187.59</ele>
        <time>2011-05-20T17:57:26Z</time>
      </trkpt>
      <trkpt lat="48.11298" lon="7.37825">
        <ele>187.11</ele>
        <time>2011-05-20T17:57:33Z</time>
      </trkpt>
      <trkpt lat="48.11279" lon="7.37854">
        <ele>187.11</ele>
        <time>2011-05-20T17:57:40Z</time>
      </trkpt>
      <trkpt lat="48.11243" lon="7.3789">
        <ele>187.11</ele>
        <time>2011-05-20T17:57:51Z</time>
      </trkpt>
      <trkpt lat="48.11229" lon="7.37903">
        <ele>187.59</ele>
        <time>2011-05-20T17:57:55Z</time>
      </trkpt>
      <trkpt lat="48.1119" lon="7.37933">
        <ele>188.08</ele>
        <time>2011-05-20T17:58:05Z</time>
      </trkpt>
      <trkpt lat="48.11147" lon="7.37961">
        <ele>188.08</ele>
        <time>2011-05-20T17:58:15Z</time>
      </trkpt>
      <trkpt lat="48.11143" lon="7.37964">
        <ele>188.08</ele>
        <time>2011-05-20T17:58:16Z</time>
      </trkpt>
      <trkpt lat="48.11099" lon="7.3798">
        <ele>188.08</ele>
        <time>2011-05-20T17:58:26Z</time>
      </trkpt>
      <trkpt lat="48.11091" lon="7.37983">
        <ele>188.08</ele>
        <time>2011-05-20T17:58:28Z</time>
      </trkpt>
      <trkpt lat="48.11056" lon="7.37983">
        <ele>187.59</ele>
        <time>2011-05-20T17:58:36Z</time>
      </trkpt>
      <trkpt lat="48.11016" lon="7.37975">
        <ele>187.59</ele>
        <time>2011-05-20T17:58:45Z</time>
      </trkpt>
      <trkpt lat="48.10998" lon="7.37972">
        <ele>188.08</ele>
        <time>2011-05-20T17:58:49Z</time>
      </trkpt>
      <trkpt lat="48.10967" lon="7.37964">
        <ele>188.08</ele>
        <time>2011-05-20T17:58:56Z</time>
      </trkpt>
      <trkpt lat="48.10934" lon="7.37958">
        <ele>187.59</ele>
        <time>2011-05-20T17:59:03Z</time>
      </trkpt>
      <trkpt lat="48.10917" lon="7.37955">
        <ele>187.59</ele>
        <time>2011-05-20T17:59:07Z</time>
      </trkpt>
      <trkpt lat="48.10876" lon="7.37946">
        <ele>187.59</ele>
        <time>2011-05-20T17:59:16Z</time>
      </trkpt>
      <trkpt lat="48.10824" lon="7.37935">
        <ele>187.59</ele>
        <time>2011-05-20T17:59:28Z</time>
      </trkpt>
      <trkpt lat="48.10791" lon="7.37929">
        <ele>187.11</ele>
        <time>2011-05-20T17:59:36Z</time>
      </trkpt>
      <trkpt lat="48.1077" lon="7.37911">
        <ele>187.11</ele>
        <time>2011-05-20T17:59:42Z</time>
      </trkpt>
      <trkpt lat="48.10745" lon="7.3789">
        <ele>188.08</ele>
        <time>2011-05-20T17:59:49Z</time>
      </trkpt>
      <trkpt lat="48.1074" lon="7.37892">
        <ele>188.08</ele>
        <time>2011-05-20T17:59:50Z</time>
      </trkpt>
      <trkpt lat="48.10728" lon="7.379">
        <ele>188.08</ele>
        <time>2011-05-20T17:59:53Z</time>
      </trkpt>
      <trkpt lat="48.10717" lon="7.37942">
        <ele>187.59</ele>
        <time>2011-05-20T18:00:01Z</time>
      </trkpt>
      <trkpt lat="48.10735" lon="7.37977">
        <ele>187.59</ele>
        <time>2011-05-20T18:00:07Z</time>
      </trkpt>
      <trkpt lat="48.10749" lon="7.38016">
        <ele>187.59</ele>
        <time>2011-05-20T18:00:12Z</time>
      </trkpt>
      <trkpt lat="48.10753" lon="7.38057">
        <ele>187.11</ele>
        <time>2011-05-20T18:00:17Z</time>
      </trkpt>
      <trkpt lat="48.10754" lon="7.38073">
        <ele>188.08</ele>
        <time>2011-05-20T18:00:19Z</time>
      </trkpt>
      <trkpt lat="48.10754" lon="7.38109">
        <ele>189.52</ele>
        <time>2011-05-20T18:00:24Z</time>
      </trkpt>
      <trkpt lat="48.10753" lon="7.38154">
        <ele>190.48</ele>
        <time>2011-05-20T18:00:30Z</time>
      </trkpt>
      <trkpt lat="48.10753" lon="7.38161">
        <ele>190.96</ele>
        <time>2011-05-20T18:00:31Z</time>
      </trkpt>
      <trkpt lat="48.10752" lon="7.38187">
        <ele>191.92</ele>
        <time>2011-05-20T18:00:35Z</time>
      </trkpt>
      <trkpt lat="48.1075" lon="7.38229">
        <ele>193.84</ele>
        <time>2011-05-20T18:00:42Z</time>
      </trkpt>
      <trkpt lat="48.1075" lon="7.38277">
        <ele>194.32</ele>
        <time>2011-05-20T18:00:50Z</time>
      </trkpt>
      <trkpt lat="48.1075" lon="7.3831">
        <ele>194.32</ele>
        <time>2011-05-20T18:00:55Z</time>
      </trkpt>
      <trkpt lat="48.10745" lon="7.38354">
        <ele>193.84</ele>
        <time>2011-05-20T18:01:01Z</time>
      </trkpt>
      <trkpt lat="48.10741" lon="7.38409">
        <ele>190</ele>
        <time>2011-05-20T18:01:07Z</time>
      </trkpt>
      <trkpt lat="48.10732" lon="7.38487">
        <ele>188.08</ele>
        <time>2011-05-20T18:01:14Z</time>
      </trkpt>
      <trkpt lat="48.10719" lon="7.38561">
        <ele>189.04</ele>
        <time>2011-05-20T18:01:21Z</time>
      </trkpt>
      <trkpt lat="48.107" lon="7.38633">
        <ele>190.96</ele>
        <time>2011-05-20T18:01:29Z</time>
      </trkpt>
      <trkpt lat="48.10697" lon="7.38641">
        <ele>191.44</ele>
        <time>2011-05-20T18:01:30Z</time>
      </trkpt>
      <trkpt lat="48.10691" lon="7.38667">
        <ele>191.92</ele>
        <time>2011-05-20T18:01:33Z</time>
      </trkpt>
      <trkpt lat="48.10681" lon="7.38698">
        <ele>192.4</ele>
        <time>2011-05-20T18:01:37Z</time>
      </trkpt>
      <trkpt lat="48.10663" lon="7.38758">
        <ele>190.48</ele>
        <time>2011-05-20T18:01:45Z</time>
      </trkpt>
      <trkpt lat="48.10641" lon="7.38843">
        <ele>189.04</ele>
        <time>2011-05-20T18:01:55Z</time>
      </trkpt>
      <trkpt lat="48.10629" lon="7.38892">
        <ele>187.59</ele>
        <time>2011-05-20T18:02:01Z</time>
      </trkpt>
      <trkpt lat="48.10613" lon="7.38911">
        <ele>188.08</ele>
        <time>2011-05-20T18:02:05Z</time>
      </trkpt>
      <trkpt lat="48.10608" lon="7.3891">
        <ele>188.56</ele>
        <time>2011-05-20T18:02:06Z</time>
      </trkpt>
      <trkpt lat="48.10596" lon="7.38902">
        <ele>188.08</ele>
        <time>2011-05-20T18:02:09Z</time>
      </trkpt>
      <trkpt lat="48.10571" lon="7.38878">
        <ele>188.56</ele>
        <time>2011-05-20T18:02:17Z</time>
      </trkpt>
      <trkpt lat="48.10551" lon="7.38865">
        <ele>188.56</ele>
        <time>2011-05-20T18:02:25Z</time>
      </trkpt>
      <trkpt lat="48.10529" lon="7.38852">
        <ele>188.56</ele>
        <time>2011-05-20T18:02:33Z</time>
      </trkpt>
      <trkpt lat="48.10499" lon="7.38833">
        <ele>188.56</ele>
        <time>2011-05-20T18:02:42Z</time>
      </trkpt>
      <trkpt lat="48.10473" lon="7.388">
        <ele>188.56</ele>
        <time>2011-05-20T18:02:51Z</time>
      </trkpt>
      <trkpt lat="48.10447" lon="7.38763">
        <ele>189.04</ele>
        <time>2011-05-20T18:03:01Z</time>
      </trkpt>
      <trkpt lat="48.10426" lon="7.38731">
        <ele>189.04</ele>
        <time>2011-05-20T18:03:09Z</time>
      </trkpt>
      <trkpt lat="48.10406" lon="7.38702">
        <ele>189.04</ele>
        <time>2011-05-20T18:03:17Z</time>
      </trkpt>
      <trkpt lat="48.10381" lon="7.38691">
        <ele>189.04</ele>
        <time>2011-05-20T18:03:24Z</time>
      </trkpt>
      <trkpt lat="48.10352" lon="7.3869">
        <ele>188.56</ele>
        <time>2011-05-20T18:03:32Z</time>
      </trkpt>
      <trkpt lat="48.10326" lon="7.38699">
        <ele>189.04</ele>
        <time>2011-05-20T18:03:40Z</time>
      </trkpt>
      <trkpt lat="48.10304" lon="7.38716">
        <ele>189.04</ele>
        <time>2011-05-20T18:03:47Z</time>
      </trkpt>
      <trkpt lat="48.10288" lon="7.38733">
        <ele>179.42</ele>
        <time>2011-05-20T18:03:52Z</time>
      </trkpt>
      <trkpt lat="48.10285" lon="7.38736">
        <ele>189.04</ele>
        <time>2011-05-20T18:03:53Z</time>
      </trkpt>
      <trkpt lat="48.10282" lon="7.3874">
        <ele>189.52</ele>
        <time>2011-05-20T18:03:54Z</time>
      </trkpt>
      <trkpt lat="48.10247" lon="7.38776">
        <ele>188.56</ele>
        <time>2011-05-20T18:04:04Z</time>
      </trkpt>
      <trkpt lat="48.10244" lon="7.3878">
        <ele>188.08</ele>
        <time>2011-05-20T18:04:05Z</time>
      </trkpt>
      <trkpt lat="48.1021" lon="7.38802">
        <ele>188.56</ele>
        <time>2011-05-20T18:04:14Z</time>
      </trkpt>
      <trkpt lat="48.10181" lon="7.38796">
        <ele>188.56</ele>
        <time>2011-05-20T18:04:21Z</time>
      </trkpt>
      <trkpt lat="48.1017" lon="7.38788">
        <ele>188.56</ele>
        <time>2011-05-20T18:04:24Z</time>
      </trkpt>
      <trkpt lat="48.10139" lon="7.38764">
        <ele>189.04</ele>
        <time>2011-05-20T18:04:33Z</time>
      </trkpt>
      <trkpt lat="48.10112" lon="7.3874">
        <ele>189.52</ele>
        <time>2011-05-20T18:04:41Z</time>
      </trkpt>
      <trkpt lat="48.10094" lon="7.38727">
        <ele>189.04</ele>
        <time>2011-05-20T18:04:46Z</time>
      </trkpt>
      <trkpt lat="48.10057" lon="7.38699">
        <ele>189.52</ele>
        <time>2011-05-20T18:04:56Z</time>
      </trkpt>
      <trkpt lat="48.10024" lon="7.3867">
        <ele>189.52</ele>
        <time>2011-05-20T18:05:06Z</time>
      </trkpt>
      <trkpt lat="48.09994" lon="7.38642">
        <ele>189.04</ele>
        <time>2011-05-20T18:05:15Z</time>
      </trkpt>
      <trkpt lat="48.0999" lon="7.3864">
        <ele>190.48</ele>
        <time>2011-05-20T18:05:16Z</time>
      </trkpt>
      <trkpt lat="48.09954" lon="7.38616">
        <ele>189.04</ele>
        <time>2011-05-20T18:05:26Z</time>
      </trkpt>
      <trkpt lat="48.09921" lon="7.38604">
        <ele>189.04</ele>
        <time>2011-05-20T18:05:35Z</time>
      </trkpt>
      <trkpt lat="48.09887" lon="7.38596">
        <ele>188.56</ele>
        <time>2011-05-20T18:05:43Z</time>
      </trkpt>
      <trkpt lat="48.09864" lon="7.38596">
        <ele>189.04</ele>
        <time>2011-05-20T18:05:49Z</time>
      </trkpt>
      <trkpt lat="48.09826" lon="7.38601">
        <ele>189.52</ele>
        <time>2011-05-20T18:05:59Z</time>
      </trkpt>
      <trkpt lat="48.09795" lon="7.38601">
        <ele>188.08</ele>
        <time>2011-05-20T18:06:06Z</time>
      </trkpt>
      <trkpt lat="48.09767" lon="7.38605">
        <ele>189.04</ele>
        <time>2011-05-20T18:06:13Z</time>
      </trkpt>
      <trkpt lat="48.09736" lon="7.38608">
        <ele>190</ele>
        <time>2011-05-20T18:06:21Z</time>
      </trkpt>
      <trkpt lat="48.09703" lon="7.3861">
        <ele>189.04</ele>
        <time>2011-05-20T18:06:29Z</time>
      </trkpt>
      <trkpt lat="48.09699" lon="7.38611">
        <ele>189.52</ele>
        <time>2011-05-20T18:06:30Z</time>
      </trkpt>
      <trkpt lat="48.09665" lon="7.38616">
        <ele>190.48</ele>
        <time>2011-05-20T18:06:38Z</time>
      </trkpt>
      <trkpt lat="48.09631" lon="7.3862">
        <ele>190</ele>
        <time>2011-05-20T18:06:47Z</time>
      </trkpt>
      <trkpt lat="48.09604" lon="7.38622">
        <ele>188.56</ele>
        <time>2011-05-20T18:06:54Z</time>
      </trkpt>
      <trkpt lat="48.09567" lon="7.38627">
        <ele>189.04</ele>
        <time>2011-05-20T18:07:03Z</time>
      </trkpt>
      <trkpt lat="48.09541" lon="7.38624">
        <ele>189.04</ele>
        <time>2011-05-20T18:07:10Z</time>
      </trkpt>
      <trkpt lat="48.09508" lon="7.38622">
        <ele>189.04</ele>
        <time>2011-05-20T18:07:19Z</time>
      </trkpt>
      <trkpt lat="48.09481" lon="7.38632">
        <ele>190.48</ele>
        <time>2011-05-20T18:07:27Z</time>
      </trkpt>
      <trkpt lat="48.09456" lon="7.38652">
        <ele>192.4</ele>
        <time>2011-05-20T18:07:35Z</time>
      </trkpt>
      <trkpt lat="48.09443" lon="7.38662">
        <ele>192.4</ele>
        <time>2011-05-20T18:07:41Z</time>
      </trkpt>
      <trkpt lat="48.09426" lon="7.38669">
        <ele>192.88</ele>
        <time>2011-05-20T18:07:48Z</time>
      </trkpt>
      <trkpt lat="48.09419" lon="7.38659">
        <ele>192.4</ele>
        <time>2011-05-20T18:07:53Z</time>
      </trkpt>
      <trkpt lat="48.0942" lon="7.38637">
        <ele>190.96</ele>
        <time>2011-05-20T18:07:58Z</time>
      </trkpt>
      <trkpt lat="48.09414" lon="7.38605">
        <ele>191.92</ele>
        <time>2011-05-20T18:08:06Z</time>
      </trkpt>
      <trkpt lat="48.09408" lon="7.3858">
        <ele>192.4</ele>
        <time>2011-05-20T18:08:12Z</time>
      </trkpt>
      <trkpt lat="48.094" lon="7.38551">
        <ele>192.4</ele>
        <time>2011-05-20T18:08:19Z</time>
      </trkpt>
      <trkpt lat="48.09394" lon="7.3852">
        <ele>191.44</ele>
        <time>2011-05-20T18:08:27Z</time>
      </trkpt>
      <trkpt lat="48.09382" lon="7.38483">
        <ele>191.44</ele>
        <time>2011-05-20T18:08:37Z</time>
      </trkpt>
      <trkpt lat="48.09369" lon="7.38456">
        <ele>191.44</ele>
        <time>2011-05-20T18:08:45Z</time>
      </trkpt>
      <trkpt lat="48.09358" lon="7.38441">
        <ele>192.88</ele>
        <time>2011-05-20T18:08:50Z</time>
      </trkpt>
      <trkpt lat="48.09336" lon="7.38425">
        <ele>192.4</ele>
        <time>2011-05-20T18:08:58Z</time>
      </trkpt>
      <trkpt lat="48.09308" lon="7.38421">
        <ele>192.4</ele>
        <time>2011-05-20T18:09:06Z</time>
      </trkpt>
      <trkpt lat="48.09276" lon="7.38422">
        <ele>191.92</ele>
        <time>2011-05-20T18:09:15Z</time>
      </trkpt>
      <trkpt lat="48.09247" lon="7.38422">
        <ele>192.88</ele>
        <time>2011-05-20T18:09:23Z</time>
      </trkpt>
      <trkpt lat="48.09217" lon="7.38425">
        <ele>192.4</ele>
        <time>2011-05-20T18:09:30Z</time>
      </trkpt>
      <trkpt lat="48.09185" lon="7.3843">
        <ele>192.4</ele>
        <time>2011-05-20T18:09:38Z</time>
      </trkpt>
      <trkpt lat="48.09172" lon="7.38431">
        <ele>192.4</ele>
        <time>2011-05-20T18:09:41Z</time>
      </trkpt>
      <trkpt lat="48.09151" lon="7.38435">
        <ele>192.4</ele>
        <time>2011-05-20T18:09:46Z</time>
      </trkpt>
      <trkpt lat="48.09142" lon="7.38435">
        <ele>192.4</ele>
        <time>2011-05-20T18:09:48Z</time>
      </trkpt>
      <trkpt lat="48.09109" lon="7.38441">
        <ele>192.4</ele>
        <time>2011-05-20T18:09:56Z</time>
      </trkpt>
      <trkpt lat="48.09076" lon="7.38448">
        <ele>192.88</ele>
        <time>2011-05-20T18:10:04Z</time>
      </trkpt>
      <trkpt lat="48.09048" lon="7.38462">
        <ele>192.4</ele>
        <time>2011-05-20T18:10:11Z</time>
      </trkpt>
      <trkpt lat="48.09021" lon="7.38476">
        <ele>192.4</ele>
        <time>2011-05-20T18:10:18Z</time>
      </trkpt>
      <trkpt lat="48.09008" lon="7.38478">
        <ele>193.36</ele>
        <time>2011-05-20T18:10:22Z</time>
      </trkpt>
      <trkpt lat="48.09" lon="7.38479">
        <ele>192.4</ele>
        <time>2011-05-20T18:10:24Z</time>
      </trkpt>
      <trkpt lat="48.0897" lon="7.38484">
        <ele>191.92</ele>
        <time>2011-05-20T18:10:32Z</time>
      </trkpt>
      <trkpt lat="48.08944" lon="7.3849">
        <ele>192.4</ele>
        <time>2011-05-20T18:10:39Z</time>
      </trkpt>
      <trkpt lat="48.08914" lon="7.38495">
        <ele>192.4</ele>
        <time>2011-05-20T18:10:47Z</time>
      </trkpt>
      <trkpt lat="48.08884" lon="7.38499">
        <ele>191.92</ele>
        <time>2011-05-20T18:10:55Z</time>
      </trkpt>
      <trkpt lat="48.08855" lon="7.38503">
        <ele>192.88</ele>
        <time>2011-05-20T18:11:03Z</time>
      </trkpt>
      <trkpt lat="48.08827" lon="7.38505">
        <ele>192.88</ele>
        <time>2011-05-20T18:11:11Z</time>
      </trkpt>
      <trkpt lat="48.08791" lon="7.3851">
        <ele>193.36</ele>
        <time>2011-05-20T18:11:21Z</time>
      </trkpt>
      <trkpt lat="48.08762" lon="7.38515">
        <ele>192.88</ele>
        <time>2011-05-20T18:11:29Z</time>
      </trkpt>
      <trkpt lat="48.0873" lon="7.38518">
        <ele>193.36</ele>
        <time>2011-05-20T18:11:37Z</time>
      </trkpt>
      <trkpt lat="48.08693" lon="7.38526">
        <ele>193.36</ele>
        <time>2011-05-20T18:11:46Z</time>
      </trkpt>
      <trkpt lat="48.08662" lon="7.3853">
        <ele>193.36</ele>
        <time>2011-05-20T18:11:53Z</time>
      </trkpt>
      <trkpt lat="48.08654" lon="7.38532">
        <ele>192.88</ele>
        <time>2011-05-20T18:11:55Z</time>
      </trkpt>
      <trkpt lat="48.08614" lon="7.38536">
        <ele>193.36</ele>
        <time>2011-05-20T18:12:05Z</time>
      </trkpt>
      <trkpt lat="48.08579" lon="7.38541">
        <ele>194.32</ele>
        <time>2011-05-20T18:12:15Z</time>
      </trkpt>
      <trkpt lat="48.08551" lon="7.38546">
        <ele>193.36</ele>
        <time>2011-05-20T18:12:23Z</time>
      </trkpt>
      <trkpt lat="48.08521" lon="7.38552">
        <ele>193.36</ele>
        <time>2011-05-20T18:12:31Z</time>
      </trkpt>
      <trkpt lat="48.085" lon="7.38558">
        <ele>192.88</ele>
        <time>2011-05-20T18:12:38Z</time>
      </trkpt>
      <trkpt lat="48.08463" lon="7.38565">
        <ele>192.88</ele>
        <time>2011-05-20T18:12:47Z</time>
      </trkpt>
      <trkpt lat="48.08428" lon="7.38578">
        <ele>192.4</ele>
        <time>2011-05-20T18:12:55Z</time>
      </trkpt>
      <trkpt lat="48.08392" lon="7.38592">
        <ele>192.4</ele>
        <time>2011-05-20T18:13:04Z</time>
      </trkpt>
      <trkpt lat="48.0836" lon="7.38597">
        <ele>192.88</ele>
        <time>2011-05-20T18:13:12Z</time>
      </trkpt>
      <trkpt lat="48.08356" lon="7.38599">
        <ele>192.4</ele>
        <time>2011-05-20T18:13:13Z</time>
      </trkpt>
      <trkpt lat="48.0832" lon="7.38605">
        <ele>192.88</ele>
        <time>2011-05-20T18:13:22Z</time>
      </trkpt>
      <trkpt lat="48.08312" lon="7.38607">
        <ele>192.4</ele>
        <time>2011-05-20T18:13:24Z</time>
      </trkpt>
      <trkpt lat="48.08283" lon="7.38611">
        <ele>192.88</ele>
        <time>2011-05-20T18:13:32Z</time>
      </trkpt>
      <trkpt lat="48.08255" lon="7.38617">
        <ele>192.88</ele>
        <time>2011-05-20T18:13:40Z</time>
      </trkpt>
      <trkpt lat="48.08224" lon="7.38622">
        <ele>191.92</ele>
        <time>2011-05-20T18:13:48Z</time>
      </trkpt>
      <trkpt lat="48.08191" lon="7.38629">
        <ele>192.4</ele>
        <time>2011-05-20T18:13:56Z</time>
      </trkpt>
      <trkpt lat="48.08163" lon="7.38645">
        <ele>192.4</ele>
        <time>2011-05-20T18:14:04Z</time>
      </trkpt>
      <trkpt lat="48.08133" lon="7.38671">
        <ele>193.36</ele>
        <time>2011-05-20T18:14:13Z</time>
      </trkpt>
      <trkpt lat="48.08119" lon="7.38685">
        <ele>194.32</ele>
        <time>2011-05-20T18:14:20Z</time>
      </trkpt>
      <trkpt lat="48.08114" lon="7.38686">
        <ele>194.32</ele>
        <time>2011-05-20T18:14:24Z</time>
      </trkpt>
      <trkpt lat="48.08109" lon="7.38668">
        <ele>194.32</ele>
        <time>2011-05-20T18:14:31Z</time>
      </trkpt>
      <trkpt lat="48.08111" lon="7.38632">
        <ele>194.32</ele>
        <time>2011-05-20T18:14:38Z</time>
      </trkpt>
      <trkpt lat="48.08109" lon="7.38599">
        <ele>194.32</ele>
        <time>2011-05-20T18:14:45Z</time>
      </trkpt>
      <trkpt lat="48.08106" lon="7.38555">
        <ele>194.32</ele>
        <time>2011-05-20T18:14:54Z</time>
      </trkpt>
      <trkpt lat="48.08103" lon="7.38511">
        <ele>194.32</ele>
        <time>2011-05-20T18:15:03Z</time>
      </trkpt>
      <trkpt lat="48.08101" lon="7.38476">
        <ele>193.84</ele>
        <time>2011-05-20T18:15:10Z</time>
      </trkpt>
      <trkpt lat="48.08098" lon="7.38433">
        <ele>193.84</ele>
        <time>2011-05-20T18:15:18Z</time>
      </trkpt>
      <trkpt lat="48.08093" lon="7.38385">
        <ele>193.36</ele>
        <time>2011-05-20T18:15:27Z</time>
      </trkpt>
      <trkpt lat="48.08083" lon="7.38335">
        <ele>193.36</ele>
        <time>2011-05-20T18:15:37Z</time>
      </trkpt>
      <trkpt lat="48.08069" lon="7.38284">
        <ele>192.4</ele>
        <time>2011-05-20T18:15:47Z</time>
      </trkpt>
      <trkpt lat="48.08054" lon="7.38238">
        <ele>193.36</ele>
        <time>2011-05-20T18:15:55Z</time>
      </trkpt>
      <trkpt lat="48.08052" lon="7.38212">
        <ele>191.92</ele>
        <time>2011-05-20T18:15:59Z</time>
      </trkpt>
      <trkpt lat="48.08056" lon="7.38193">
        <ele>190.96</ele>
        <time>2011-05-20T18:16:02Z</time>
      </trkpt>
      <trkpt lat="48.08048" lon="7.38157">
        <ele>190.48</ele>
        <time>2011-05-20T18:16:10Z</time>
      </trkpt>
      <trkpt lat="48.08039" lon="7.38153">
        <ele>191.44</ele>
        <time>2011-05-20T18:16:17Z</time>
      </trkpt>
      <trkpt lat="48.08054" lon="7.38131">
        <ele>190.48</ele>
        <time>2011-05-20T18:16:25Z</time>
      </trkpt>
      <trkpt lat="48.08055" lon="7.38127">
        <ele>190.48</ele>
        <time>2011-05-20T18:16:26Z</time>
      </trkpt>
      <trkpt lat="48.08063" lon="7.38113">
        <ele>190.96</ele>
        <time>2011-05-20T18:16:35Z</time>
      </trkpt>
      <trkpt lat="48.08069" lon="7.38094">
        <ele>190.48</ele>
        <time>2011-05-20T18:16:42Z</time>
      </trkpt>
      <trkpt lat="48.0807" lon="7.38091">
        <ele>190.48</ele>
        <time>2011-05-20T18:16:51Z</time>
      </trkpt>
      <trkpt lat="48.0807" lon="7.38091">
        <ele>190.96</ele>
        <time>2011-05-20T18:17:08Z</time>
      </trkpt>
      <trkpt lat="48.0807" lon="7.38091">
        <ele>195.28</ele>
        <time>2011-05-20T18:17:14Z</time>
      </trkpt>
      <trkpt lat="48.0807" lon="7.38091">
        <ele>193.84</ele>
        <time>2011-05-20T18:17:15Z</time>
      </trkpt>
      <trkpt lat="48.0807" lon="7.38091">
        <ele>190.96</ele>
        <time>2011-05-20T18:17:18Z</time>
      </trkpt>
      <trkpt lat="48.0807" lon="7.38091">
        <ele>190</ele>
        <time>2011-05-20T18:17:20Z</time>
      </trkpt>
      <trkpt lat="48.0807" lon="7.38091">
        <ele>190.96</ele>
        <time>2011-05-20T18:17:22Z</time>
      </trkpt>
      <trkpt lat="48.0807" lon="7.38091">
        <ele>187.11</ele>
        <time>2011-05-20T18:17:25Z</time>
      </trkpt>
      <trkpt lat="48.0807" lon="7.38091">
        <ele>191.44</ele>
        <time>2011-05-20T18:17:26Z</time>
      </trkpt>
      <trkpt lat="48.0807" lon="7.38091">
        <ele>191.92</ele>
        <time>2011-05-20T18:17:38Z</time>
      </trkpt>
      <trkpt lat="48.0807" lon="7.38091">
        <ele>191.44</ele>
        <time>2011-05-20T18:17:49Z</time>
      </trkpt>
      <trkpt lat="48.0807" lon="7.38092">
        <ele>190.96</ele>
        <time>2011-05-20T18:18:04Z</time>
      </trkpt>
      <trkpt lat="48.0807" lon="7.38092">
        <ele>190.96</ele>
        <time>2011-05-20T18:18:16Z</time>
      </trkpt>
      <trkpt lat="48.0807" lon="7.38091">
        <ele>190.48</ele>
        <time>2011-05-20T18:18:26Z</time>
      </trkpt>
      <trkpt lat="48.0807" lon="7.38091">
        <ele>190.96</ele>
        <time>2011-05-20T18:18:41Z</time>
      </trkpt>
      <trkpt lat="48.0807" lon="7.38092">
        <ele>190.96</ele>
        <time>2011-05-20T18:18:52Z</time>
      </trkpt>
      <trkpt lat="48.0807" lon="7.38092">
        <ele>190.96</ele>
        <time>2011-05-20T18:19:04Z</time>
      </trkpt>
      <trkpt lat="48.0807" lon="7.38092">
        <ele>191.44</ele>
        <time>2011-05-20T18:19:22Z</time>
      </trkpt>
      <trkpt lat="48.0807" lon="7.3809">
        <ele>191.92</ele>
        <time>2011-05-20T18:19:36Z</time>
      </trkpt>
      <trkpt lat="48.08068" lon="7.38086">
        <ele>191.44</ele>
        <time>2011-05-20T18:19:45Z</time>
      </trkpt>
      <trkpt lat="48.08065" lon="7.38077">
        <ele>191.44</ele>
        <time>2011-05-20T18:19:52Z</time>
      </trkpt>
      <trkpt lat="48.08064" lon="7.3807">
        <ele>191.44</ele>
        <time>2011-05-20T18:19:59Z</time>
      </trkpt>
      <trkpt lat="48.08062" lon="7.38065">
        <ele>190.96</ele>
        <time>2011-05-20T18:20:03Z</time>
      </trkpt>
      <trkpt lat="48.0806" lon="7.38057">
        <ele>190.96</ele>
        <time>2011-05-20T18:20:11Z</time>
      </trkpt>
      <trkpt lat="48.08059" lon="7.3805">
        <ele>190.96</ele>
        <time>2011-05-20T18:20:16Z</time>
      </trkpt>
      <trkpt lat="48.08059" lon="7.38034">
        <ele>190.96</ele>
        <time>2011-05-20T18:20:23Z</time>
      </trkpt>
      <trkpt lat="48.0806" lon="7.38011">
        <ele>190.96</ele>
        <time>2011-05-20T18:20:30Z</time>
      </trkpt>
      <trkpt lat="48.08059" lon="7.37988">
        <ele>191.44</ele>
        <time>2011-05-20T18:20:37Z</time>
      </trkpt>
      <trkpt lat="48.08057" lon="7.37969">
        <ele>190.48</ele>
        <time>2011-05-20T18:20:44Z</time>
      </trkpt>
      <trkpt lat="48.08052" lon="7.37954">
        <ele>190.48</ele>
        <time>2011-05-20T18:20:51Z</time>
      </trkpt>
      <trkpt lat="48.08052" lon="7.3795">
        <ele>190.96</ele>
        <time>2011-05-20T18:20:59Z</time>
      </trkpt>
      <trkpt lat="48.08052" lon="7.3795">
        <ele>191.44</ele>
        <time>2011-05-20T18:21:06Z</time>
      </trkpt>
      <trkpt lat="48.08051" lon="7.37953">
        <ele>179.9</ele>
        <time>2011-05-20T20:39:32Z</time>
      </trkpt>
      <trkpt lat="48.08055" lon="7.37953">
        <ele>179.9</ele>
        <time>2011-05-20T20:39:33Z</time>
      </trkpt>
      <trkpt lat="48.08052" lon="7.37953">
        <ele>181.35</ele>
        <time>2011-05-20T20:39:41Z</time>
      </trkpt>
      <trkpt lat="48.08048" lon="7.37958">
        <ele>183.75</ele>
        <time>2011-05-20T20:39:48Z</time>
      </trkpt>
      <trkpt lat="48.08047" lon="7.37958">
        <ele>185.19</ele>
        <time>2011-05-20T20:39:51Z</time>
      </trkpt>
      <trkpt lat="48.08049" lon="7.37957">
        <ele>188.08</ele>
        <time>2011-05-20T20:40:00Z</time>
      </trkpt>
      <trkpt lat="48.08049" lon="7.37955">
        <ele>191.92</ele>
        <time>2011-05-20T20:40:14Z</time>
      </trkpt>
      <trkpt lat="48.08048" lon="7.37955">
        <ele>195.28</ele>
        <time>2011-05-20T20:40:31Z</time>
      </trkpt>
      <trkpt lat="48.0805" lon="7.37956">
        <ele>196.73</ele>
        <time>2011-05-20T20:40:39Z</time>
      </trkpt>
      <trkpt lat="48.0805" lon="7.37955">
        <ele>197.69</ele>
        <time>2011-05-20T20:40:47Z</time>
      </trkpt>
      <trkpt lat="48.0805" lon="7.37955">
        <ele>198.65</ele>
        <time>2011-05-20T20:40:54Z</time>
      </trkpt>
      <trkpt lat="48.08051" lon="7.37955">
        <ele>198.17</ele>
        <time>2011-05-20T20:41:00Z</time>
      </trkpt>
      <trkpt lat="48.08052" lon="7.37959">
        <ele>198.17</ele>
        <time>2011-05-20T20:41:10Z</time>
      </trkpt>
      <trkpt lat="48.08053" lon="7.37962">
        <ele>198.17</ele>
        <time>2011-05-20T20:41:19Z</time>
      </trkpt>
      <trkpt lat="48.08053" lon="7.3796">
        <ele>197.69</ele>
        <time>2011-05-20T20:41:31Z</time>
      </trkpt>
      <trkpt lat="48.08054" lon="7.37959">
        <ele>198.17</ele>
        <time>2011-05-20T20:41:40Z</time>
      </trkpt>
      <trkpt lat="48.08054" lon="7.37959">
        <ele>197.69</ele>
        <time>2011-05-20T20:41:52Z</time>
      </trkpt>
      <trkpt lat="48.08054" lon="7.37959">
        <ele>197.69</ele>
        <time>2011-05-20T20:41:53Z</time>
      </trkpt>
      <trkpt lat="48.08054" lon="7.37961">
        <ele>198.17</ele>
        <time>2011-05-20T20:42:01Z</time>
      </trkpt>
      <trkpt lat="48.08054" lon="7.37961">
        <ele>198.17</ele>
        <time>2011-05-20T20:42:12Z</time>
      </trkpt>
      <trkpt lat="48.08054" lon="7.37961">
        <ele>198.17</ele>
        <time>2011-05-20T20:42:21Z</time>
      </trkpt>
      <trkpt lat="48.08054" lon="7.37961">
        <ele>198.17</ele>
        <time>2011-05-20T20:42:34Z</time>
      </trkpt>
      <trkpt lat="48.08054" lon="7.37959">
        <ele>198.17</ele>
        <time>2011-05-20T20:42:43Z</time>
      </trkpt>
      <trkpt lat="48.08053" lon="7.37958">
        <ele>198.17</ele>
        <time>2011-05-20T20:42:50Z</time>
      </trkpt>
      <trkpt lat="48.08053" lon="7.37959">
        <ele>198.17</ele>
        <time>2011-05-20T20:43:00Z</time>
      </trkpt>
      <trkpt lat="48.08052" lon="7.37962">
        <ele>198.17</ele>
        <time>2011-05-20T20:43:10Z</time>
      </trkpt>
      <trkpt lat="48.08052" lon="7.37963">
        <ele>197.69</ele>
        <time>2011-05-20T20:43:18Z</time>
      </trkpt>
      <trkpt lat="48.08051" lon="7.37962">
        <ele>198.17</ele>
        <time>2011-05-20T20:43:28Z</time>
      </trkpt>
      <trkpt lat="48.08051" lon="7.37962">
        <ele>197.69</ele>
        <time>2011-05-20T20:43:37Z</time>
      </trkpt>
      <trkpt lat="48.08051" lon="7.37962">
        <ele>197.69</ele>
        <time>2011-05-20T20:43:49Z</time>
      </trkpt>
      <trkpt lat="48.08051" lon="7.37961">
        <ele>198.17</ele>
        <time>2011-05-20T20:44:03Z</time>
      </trkpt>
      <trkpt lat="48.0805" lon="7.37957">
        <ele>197.69</ele>
        <time>2011-05-20T20:44:10Z</time>
      </trkpt>
      <trkpt lat="48.08051" lon="7.37956">
        <ele>197.69</ele>
        <time>2011-05-20T20:44:18Z</time>
      </trkpt>
      <trkpt lat="48.08055" lon="7.37961">
        <ele>197.69</ele>
        <time>2011-05-20T20:44:26Z</time>
      </trkpt>
      <trkpt lat="48.08052" lon="7.37956">
        <ele>197.69</ele>
        <time>2011-05-20T20:44:33Z</time>
      </trkpt>
      <trkpt lat="48.08052" lon="7.37957">
        <ele>198.17</ele>
        <time>2011-05-20T20:44:44Z</time>
      </trkpt>
      <trkpt lat="48.08052" lon="7.37957">
        <ele>197.69</ele>
        <time>2011-05-20T20:44:54Z</time>
      </trkpt>
      <trkpt lat="48.08052" lon="7.37957">
        <ele>198.17</ele>
        <time>2011-05-20T20:45:02Z</time>
      </trkpt>
      <trkpt lat="48.08052" lon="7.37957">
        <ele>197.69</ele>
        <time>2011-05-20T20:45:15Z</time>
      </trkpt>
      <trkpt lat="48.08052" lon="7.37957">
        <ele>198.17</ele>
        <time>2011-05-20T20:45:28Z</time>
      </trkpt>
      <trkpt lat="48.08051" lon="7.37957">
        <ele>198.17</ele>
        <time>2011-05-20T20:45:42Z</time>
      </trkpt>
      <trkpt lat="48.08051" lon="7.37957">
        <ele>197.69</ele>
        <time>2011-05-20T20:45:53Z</time>
      </trkpt>
      <trkpt lat="48.08051" lon="7.37957">
        <ele>198.17</ele>
        <time>2011-05-20T20:46:04Z</time>
      </trkpt>
      <trkpt lat="48.08051" lon="7.37957">
        <ele>197.69</ele>
        <time>2011-05-20T20:46:12Z</time>
      </trkpt>
      <trkpt lat="48.08051" lon="7.37956">
        <ele>197.69</ele>
        <time>2011-05-20T20:46:21Z</time>
      </trkpt>
      <trkpt lat="48.0805" lon="7.37954">
        <ele>197.69</ele>
        <time>2011-05-20T20:46:24Z</time>
      </trkpt>
      <trkpt lat="48.08048" lon="7.37922">
        <ele>197.69</ele>
        <time>2011-05-20T20:46:32Z</time>
      </trkpt>
      <trkpt lat="48.08046" lon="7.37882">
        <ele>197.69</ele>
        <time>2011-05-20T20:46:40Z</time>
      </trkpt>
      <trkpt lat="48.08044" lon="7.37847">
        <ele>196.73</ele>
        <time>2011-05-20T20:46:48Z</time>
      </trkpt>
      <trkpt lat="48.08043" lon="7.37832">
        <ele>200.57</ele>
        <time>2011-05-20T20:46:51Z</time>
      </trkpt>
      <trkpt lat="48.08042" lon="7.37828">
        <ele>197.21</ele>
        <time>2011-05-20T20:46:52Z</time>
      </trkpt>
      <trkpt lat="48.08039" lon="7.37789">
        <ele>197.21</ele>
        <time>2011-05-20T20:47:01Z</time>
      </trkpt>
      <trkpt lat="48.08032" lon="7.37769">
        <ele>197.21</ele>
        <time>2011-05-20T20:47:08Z</time>
      </trkpt>
      <trkpt lat="48.0801" lon="7.37768">
        <ele>196.73</ele>
        <time>2011-05-20T20:47:15Z</time>
      </trkpt>
      <trkpt lat="48.07995" lon="7.3776">
        <ele>197.69</ele>
        <time>2011-05-20T20:47:23Z</time>
      </trkpt>
      <trkpt lat="48.07995" lon="7.37756">
        <ele>197.21</ele>
        <time>2011-05-20T20:47:24Z</time>
      </trkpt>
      <trkpt lat="48.07994" lon="7.37738">
        <ele>198.17</ele>
        <time>2011-05-20T20:47:28Z</time>
      </trkpt>
      <trkpt lat="48.07995" lon="7.37696">
        <ele>198.17</ele>
        <time>2011-05-20T20:47:36Z</time>
      </trkpt>
      <trkpt lat="48.07991" lon="7.37662">
        <ele>198.65</ele>
        <time>2011-05-20T20:47:43Z</time>
      </trkpt>
      <trkpt lat="48.07988" lon="7.37621">
        <ele>199.13</ele>
        <time>2011-05-20T20:47:51Z</time>
      </trkpt>
      <trkpt lat="48.07987" lon="7.37573">
        <ele>198.17</ele>
        <time>2011-05-20T20:48:00Z</time>
      </trkpt>
      <trkpt lat="48.07984" lon="7.37525">
        <ele>198.17</ele>
        <time>2011-05-20T20:48:09Z</time>
      </trkpt>
      <trkpt lat="48.07983" lon="7.37486">
        <ele>197.69</ele>
        <time>2011-05-20T20:48:17Z</time>
      </trkpt>
      <trkpt lat="48.07979" lon="7.37439">
        <ele>197.69</ele>
        <time>2011-05-20T20:48:26Z</time>
      </trkpt>
      <trkpt lat="48.07976" lon="7.37391">
        <ele>197.21</ele>
        <time>2011-05-20T20:48:35Z</time>
      </trkpt>
      <trkpt lat="48.07976" lon="7.37362">
        <ele>197.21</ele>
        <time>2011-05-20T20:48:43Z</time>
      </trkpt>
      <trkpt lat="48.07978" lon="7.3733">
        <ele>196.25</ele>
        <time>2011-05-20T20:48:50Z</time>
      </trkpt>
      <trkpt lat="48.07981" lon="7.37287">
        <ele>196.25</ele>
        <time>2011-05-20T20:48:58Z</time>
      </trkpt>
      <trkpt lat="48.07982" lon="7.37245">
        <ele>196.25</ele>
        <time>2011-05-20T20:49:06Z</time>
      </trkpt>
      <trkpt lat="48.07983" lon="7.37199">
        <ele>196.25</ele>
        <time>2011-05-20T20:49:15Z</time>
      </trkpt>
      <trkpt lat="48.07987" lon="7.37146">
        <ele>196.25</ele>
        <time>2011-05-20T20:49:25Z</time>
      </trkpt>
      <trkpt lat="48.07991" lon="7.37102">
        <ele>195.77</ele>
        <time>2011-05-20T20:49:34Z</time>
      </trkpt>
      <trkpt lat="48.07993" lon="7.37062">
        <ele>195.77</ele>
        <time>2011-05-20T20:49:42Z</time>
      </trkpt>
      <trkpt lat="48.07998" lon="7.37017">
        <ele>196.25</ele>
        <time>2011-05-20T20:49:51Z</time>
      </trkpt>
      <trkpt lat="48.08001" lon="7.36958">
        <ele>196.73</ele>
        <time>2011-05-20T20:50:02Z</time>
      </trkpt>
      <trkpt lat="48.08006" lon="7.36908">
        <ele>196.73</ele>
        <time>2011-05-20T20:50:11Z</time>
      </trkpt>
      <trkpt lat="48.0801" lon="7.36849">
        <ele>196.73</ele>
        <time>2011-05-20T20:50:22Z</time>
      </trkpt>
      <trkpt lat="48.08011" lon="7.36808">
        <ele>196.25</ele>
        <time>2011-05-20T20:50:29Z</time>
      </trkpt>
      <trkpt lat="48.08014" lon="7.36754">
        <ele>196.73</ele>
        <time>2011-05-20T20:50:38Z</time>
      </trkpt>
      <trkpt lat="48.08014" lon="7.36713">
        <ele>196.73</ele>
        <time>2011-05-20T20:50:45Z</time>
      </trkpt>
      <trkpt lat="48.08013" lon="7.36707">
        <ele>196.73</ele>
        <time>2011-05-20T20:50:46Z</time>
      </trkpt>
      <trkpt lat="48.08004" lon="7.36647">
        <ele>197.21</ele>
        <time>2011-05-20T20:50:56Z</time>
      </trkpt>
      <trkpt lat="48.07996" lon="7.36603">
        <ele>197.21</ele>
        <time>2011-05-20T20:51:04Z</time>
      </trkpt>
      <trkpt lat="48.07999" lon="7.3656">
        <ele>197.69</ele>
        <time>2011-05-20T20:51:12Z</time>
      </trkpt>
      <trkpt lat="48.08007" lon="7.36518">
        <ele>198.17</ele>
        <time>2011-05-20T20:51:20Z</time>
      </trkpt>
      <trkpt lat="48.08014" lon="7.36499">
        <ele>199.13</ele>
        <time>2011-05-20T20:51:27Z</time>
      </trkpt>
      <trkpt lat="48.08019" lon="7.36488">
        <ele>199.13</ele>
        <time>2011-05-20T20:51:34Z</time>
      </trkpt>
      <trkpt lat="48.0802" lon="7.36487">
        <ele>199.61</ele>
        <time>2011-05-20T20:51:41Z</time>
      </trkpt>
      <trkpt lat="48.0802" lon="7.36485">
        <ele>199.13</ele>
        <time>2011-05-20T20:51:52Z</time>
      </trkpt>
      <trkpt lat="48.08025" lon="7.36455">
        <ele>199.61</ele>
        <time>2011-05-20T20:52:00Z</time>
      </trkpt>
      <trkpt lat="48.08029" lon="7.36419">
        <ele>200.57</ele>
        <time>2011-05-20T20:52:07Z</time>
      </trkpt>
      <trkpt lat="48.08041" lon="7.36382">
        <ele>200.57</ele>
        <time>2011-05-20T20:52:16Z</time>
      </trkpt>
      <trkpt lat="48.08053" lon="7.36351">
        <ele>200.57</ele>
        <time>2011-05-20T20:52:23Z</time>
      </trkpt>
      <trkpt lat="48.08064" lon="7.36304">
        <ele>199.61</ele>
        <time>2011-05-20T20:52:32Z</time>
      </trkpt>
      <trkpt lat="48.08077" lon="7.3626">
        <ele>199.61</ele>
        <time>2011-05-20T20:52:40Z</time>
      </trkpt>
      <trkpt lat="48.08093" lon="7.3621">
        <ele>199.61</ele>
        <time>2011-05-20T20:52:49Z</time>
      </trkpt>
      <trkpt lat="48.08104" lon="7.36161">
        <ele>199.13</ele>
        <time>2011-05-20T20:52:58Z</time>
      </trkpt>
      <trkpt lat="48.08112" lon="7.36122">
        <ele>199.13</ele>
        <time>2011-05-20T20:53:07Z</time>
      </trkpt>
      <trkpt lat="48.08122" lon="7.36088">
        <ele>199.13</ele>
        <time>2011-05-20T20:53:16Z</time>
      </trkpt>
      <trkpt lat="48.08135" lon="7.36047">
        <ele>199.61</ele>
        <time>2011-05-20T20:53:25Z</time>
      </trkpt>
      <trkpt lat="48.08145" lon="7.36008">
        <ele>199.13</ele>
        <time>2011-05-20T20:53:33Z</time>
      </trkpt>
      <trkpt lat="48.08153" lon="7.3596">
        <ele>199.13</ele>
        <time>2011-05-20T20:53:42Z</time>
      </trkpt>
      <trkpt lat="48.08162" lon="7.35926">
        <ele>199.61</ele>
        <time>2011-05-20T20:53:49Z</time>
      </trkpt>
      <trkpt lat="48.08181" lon="7.35871">
        <ele>198.65</ele>
        <time>2011-05-20T20:54:01Z</time>
      </trkpt>
      <trkpt lat="48.0818" lon="7.35835">
        <ele>199.61</ele>
        <time>2011-05-20T20:54:08Z</time>
      </trkpt>
      <trkpt lat="48.08174" lon="7.35811">
        <ele>199.61</ele>
        <time>2011-05-20T20:54:15Z</time>
      </trkpt>
      <trkpt lat="48.08169" lon="7.35784">
        <ele>199.13</ele>
        <time>2011-05-20T20:54:22Z</time>
      </trkpt>
      <trkpt lat="48.08163" lon="7.3574">
        <ele>200.09</ele>
        <time>2011-05-20T20:54:31Z</time>
      </trkpt>
      <trkpt lat="48.08158" lon="7.35698">
        <ele>199.61</ele>
        <time>2011-05-20T20:54:40Z</time>
      </trkpt>
      <trkpt lat="48.08155" lon="7.35656">
        <ele>200.57</ele>
        <time>2011-05-20T20:54:48Z</time>
      </trkpt>
      <trkpt lat="48.08151" lon="7.3562">
        <ele>199.61</ele>
        <time>2011-05-20T20:54:55Z</time>
      </trkpt>
      <trkpt lat="48.08146" lon="7.35569">
        <ele>200.09</ele>
        <time>2011-05-20T20:55:06Z</time>
      </trkpt>
      <trkpt lat="48.08137" lon="7.35537">
        <ele>200.09</ele>
        <time>2011-05-20T20:55:15Z</time>
      </trkpt>
      <trkpt lat="48.08115" lon="7.35531">
        <ele>200.57</ele>
        <time>2011-05-20T20:55:21Z</time>
      </trkpt>
      <trkpt lat="48.08095" lon="7.35511">
        <ele>201.05</ele>
        <time>2011-05-20T20:55:28Z</time>
      </trkpt>
      <trkpt lat="48.08091" lon="7.35474">
        <ele>201.53</ele>
        <time>2011-05-20T20:55:35Z</time>
      </trkpt>
      <trkpt lat="48.08087" lon="7.35432">
        <ele>201.53</ele>
        <time>2011-05-20T20:55:43Z</time>
      </trkpt>
      <trkpt lat="48.08084" lon="7.35397">
        <ele>201.53</ele>
        <time>2011-05-20T20:55:51Z</time>
      </trkpt>
      <trkpt lat="48.08101" lon="7.35368">
        <ele>201.53</ele>
        <time>2011-05-20T20:55:59Z</time>
      </trkpt>
      <trkpt lat="48.08129" lon="7.35345">
        <ele>202.49</ele>
        <time>2011-05-20T20:56:07Z</time>
      </trkpt>
      <trkpt lat="48.08154" lon="7.35327">
        <ele>202.49</ele>
        <time>2011-05-20T20:56:15Z</time>
      </trkpt>
      <trkpt lat="48.0818" lon="7.35295">
        <ele>202.49</ele>
        <time>2011-05-20T20:56:25Z</time>
      </trkpt>
      <trkpt lat="48.08205" lon="7.35262">
        <ele>202.49</ele>
        <time>2011-05-20T20:56:34Z</time>
      </trkpt>
      <trkpt lat="48.0823" lon="7.35233">
        <ele>202.98</ele>
        <time>2011-05-20T20:56:42Z</time>
      </trkpt>
      <trkpt lat="48.08255" lon="7.352">
        <ele>202.01</ele>
        <time>2011-05-20T20:56:51Z</time>
      </trkpt>
      <trkpt lat="48.08277" lon="7.35172">
        <ele>202.49</ele>
        <time>2011-05-20T20:56:59Z</time>
      </trkpt>
      <trkpt lat="48.08306" lon="7.35133">
        <ele>202.49</ele>
        <time>2011-05-20T20:57:10Z</time>
      </trkpt>
      <trkpt lat="48.08326" lon="7.35101">
        <ele>202.98</ele>
        <time>2011-05-20T20:57:18Z</time>
      </trkpt>
      <trkpt lat="48.08345" lon="7.35066">
        <ele>202.01</ele>
        <time>2011-05-20T20:57:26Z</time>
      </trkpt>
      <trkpt lat="48.08352" lon="7.35032">
        <ele>201.05</ele>
        <time>2011-05-20T20:57:33Z</time>
      </trkpt>
      <trkpt lat="48.08357" lon="7.34987">
        <ele>200.57</ele>
        <time>2011-05-20T20:57:39Z</time>
      </trkpt>
      <trkpt lat="48.08362" lon="7.34937">
        <ele>202.01</ele>
        <time>2011-05-20T20:57:47Z</time>
      </trkpt>
      <trkpt lat="48.08364" lon="7.34906">
        <ele>202.98</ele>
        <time>2011-05-20T20:57:54Z</time>
      </trkpt>
      <trkpt lat="48.08369" lon="7.34876">
        <ele>203.94</ele>
        <time>2011-05-20T20:58:01Z</time>
      </trkpt>
      <trkpt lat="48.08369" lon="7.3487">
        <ele>203.46</ele>
        <time>2011-05-20T20:58:07Z</time>
      </trkpt>
      <trkpt lat="48.08367" lon="7.34872">
        <ele>203.94</ele>
        <time>2011-05-20T20:58:17Z</time>
      </trkpt>
      <trkpt lat="48.08367" lon="7.34872">
        <ele>203.46</ele>
        <time>2011-05-20T20:58:26Z</time>
      </trkpt>
      <trkpt lat="48.08367" lon="7.3487">
        <ele>203.94</ele>
        <time>2011-05-20T20:58:36Z</time>
      </trkpt>
      <trkpt lat="48.0837" lon="7.34863">
        <ele>203.46</ele>
        <time>2011-05-20T20:58:40Z</time>
      </trkpt>
      <trkpt lat="48.08375" lon="7.34836">
        <ele>203.46</ele>
        <time>2011-05-20T20:58:46Z</time>
      </trkpt>
      <trkpt lat="48.08382" lon="7.34777">
        <ele>203.46</ele>
        <time>2011-05-20T20:58:54Z</time>
      </trkpt>
      <trkpt lat="48.08383" lon="7.34749">
        <ele>203.94</ele>
        <time>2011-05-20T20:59:01Z</time>
      </trkpt>
      <trkpt lat="48.08382" lon="7.3475">
        <ele>203.94</ele>
        <time>2011-05-20T20:59:06Z</time>
      </trkpt>
      <trkpt lat="48.08382" lon="7.3475">
        <ele>204.42</ele>
        <time>2011-05-20T20:59:15Z</time>
      </trkpt>
      <trkpt lat="48.08382" lon="7.3475">
        <ele>203.46</ele>
        <time>2011-05-20T20:59:29Z</time>
      </trkpt>
      <trkpt lat="48.08382" lon="7.3475">
        <ele>203.46</ele>
        <time>2011-05-20T20:59:39Z</time>
      </trkpt>
      <trkpt lat="48.08383" lon="7.34751">
        <ele>203.46</ele>
        <time>2011-05-20T20:59:47Z</time>
      </trkpt>
      <trkpt lat="48.08383" lon="7.34751">
        <ele>203.46</ele>
        <time>2011-05-20T20:59:57Z</time>
      </trkpt>
      <trkpt lat="48.08383" lon="7.34751">
        <ele>203.94</ele>
        <time>2011-05-20T21:00:09Z</time>
      </trkpt>
      <trkpt lat="48.08383" lon="7.34751">
        <ele>203.46</ele>
        <time>2011-05-20T21:00:24Z</time>
      </trkpt>
      <trkpt lat="48.08382" lon="7.34749">
        <ele>203.46</ele>
        <time>2011-05-20T21:00:25Z</time>
      </trkpt>
      <trkpt lat="48.08384" lon="7.3474">
        <ele>203.94</ele>
        <time>2011-05-20T21:00:29Z</time>
      </trkpt>
      <trkpt lat="48.0839" lon="7.34697">
        <ele>203.94</ele>
        <time>2011-05-20T21:00:38Z</time>
      </trkpt>
      <trkpt lat="48.08396" lon="7.34641">
        <ele>203.94</ele>
        <time>2011-05-20T21:00:48Z</time>
      </trkpt>
      <trkpt lat="48.08398" lon="7.346">
        <ele>203.94</ele>
        <time>2011-05-20T21:00:55Z</time>
      </trkpt>
      <trkpt lat="48.08406" lon="7.34544">
        <ele>203.94</ele>
        <time>2011-05-20T21:01:05Z</time>
      </trkpt>
      <trkpt lat="48.08416" lon="7.34491">
        <ele>204.9</ele>
        <time>2011-05-20T21:01:14Z</time>
      </trkpt>
      <trkpt lat="48.08429" lon="7.34428">
        <ele>204.9</ele>
        <time>2011-05-20T21:01:25Z</time>
      </trkpt>
      <trkpt lat="48.08444" lon="7.34371">
        <ele>204.9</ele>
        <time>2011-05-20T21:01:35Z</time>
      </trkpt>
      <trkpt lat="48.08452" lon="7.34318">
        <ele>205.38</ele>
        <time>2011-05-20T21:01:44Z</time>
      </trkpt>
      <trkpt lat="48.0846" lon="7.34264">
        <ele>205.38</ele>
        <time>2011-05-20T21:01:53Z</time>
      </trkpt>
      <trkpt lat="48.08468" lon="7.34203">
        <ele>204.9</ele>
        <time>2011-05-20T21:02:03Z</time>
      </trkpt>
      <trkpt lat="48.08479" lon="7.34139">
        <ele>205.38</ele>
        <time>2011-05-20T21:02:14Z</time>
      </trkpt>
      <trkpt lat="48.08484" lon="7.34107">
        <ele>206.34</ele>
        <time>2011-05-20T21:02:21Z</time>
      </trkpt>
      <trkpt lat="48.08491" lon="7.3407">
        <ele>205.86</ele>
        <time>2011-05-20T21:02:29Z</time>
      </trkpt>
      <trkpt lat="48.08496" lon="7.34035">
        <ele>206.34</ele>
        <time>2011-05-20T21:02:37Z</time>
      </trkpt>
      <trkpt lat="48.08503" lon="7.33997">
        <ele>205.38</ele>
        <time>2011-05-20T21:02:44Z</time>
      </trkpt>
      <trkpt lat="48.08508" lon="7.33959">
        <ele>205.86</ele>
        <time>2011-05-20T21:02:51Z</time>
      </trkpt>
      <trkpt lat="48.0852" lon="7.33896">
        <ele>206.34</ele>
        <time>2011-05-20T21:03:02Z</time>
      </trkpt>
      <trkpt lat="48.08524" lon="7.33844">
        <ele>206.82</ele>
        <time>2011-05-20T21:03:11Z</time>
      </trkpt>
      <trkpt lat="48.08524" lon="7.33838">
        <ele>210.67</ele>
        <time>2011-05-20T21:03:12Z</time>
      </trkpt>
      <trkpt lat="48.08524" lon="7.33832">
        <ele>208.74</ele>
        <time>2011-05-20T21:03:13Z</time>
      </trkpt>
      <trkpt lat="48.08526" lon="7.33821">
        <ele>206.82</ele>
        <time>2011-05-20T21:03:15Z</time>
      </trkpt>
      <trkpt lat="48.0853" lon="7.33768">
        <ele>206.34</ele>
        <time>2011-05-20T21:03:24Z</time>
      </trkpt>
      <trkpt lat="48.08537" lon="7.33711">
        <ele>207.78</ele>
        <time>2011-05-20T21:03:34Z</time>
      </trkpt>
      <trkpt lat="48.08545" lon="7.33665">
        <ele>208.26</ele>
        <time>2011-05-20T21:03:42Z</time>
      </trkpt>
      <trkpt lat="48.08554" lon="7.33621">
        <ele>207.78</ele>
        <time>2011-05-20T21:03:50Z</time>
      </trkpt>
      <trkpt lat="48.08562" lon="7.33586">
        <ele>208.74</ele>
        <time>2011-05-20T21:03:57Z</time>
      </trkpt>
      <trkpt lat="48.08571" lon="7.33541">
        <ele>208.74</ele>
        <time>2011-05-20T21:04:06Z</time>
      </trkpt>
      <trkpt lat="48.0858" lon="7.33504">
        <ele>209.22</ele>
        <time>2011-05-20T21:04:14Z</time>
      </trkpt>
      <trkpt lat="48.08593" lon="7.33458">
        <ele>209.7</ele>
        <time>2011-05-20T21:04:24Z</time>
      </trkpt>
      <trkpt lat="48.08604" lon="7.33414">
        <ele>209.7</ele>
        <time>2011-05-20T21:04:34Z</time>
      </trkpt>
      <trkpt lat="48.08611" lon="7.33376">
        <ele>209.22</ele>
        <time>2011-05-20T21:04:42Z</time>
      </trkpt>
      <trkpt lat="48.08621" lon="7.33323">
        <ele>209.7</ele>
        <time>2011-05-20T21:04:53Z</time>
      </trkpt>
      <trkpt lat="48.08629" lon="7.33288">
        <ele>209.7</ele>
        <time>2011-05-20T21:05:00Z</time>
      </trkpt>
      <trkpt lat="48.08633" lon="7.33248">
        <ele>210.19</ele>
        <time>2011-05-20T21:05:09Z</time>
      </trkpt>
      <trkpt lat="48.0864" lon="7.33218">
        <ele>210.19</ele>
        <time>2011-05-20T21:05:17Z</time>
      </trkpt>
      <trkpt lat="48.08645" lon="7.33196">
        <ele>210.19</ele>
        <time>2011-05-20T21:05:23Z</time>
      </trkpt>
      <trkpt lat="48.08654" lon="7.3317">
        <ele>211.15</ele>
        <time>2011-05-20T21:05:32Z</time>
      </trkpt>
      <trkpt lat="48.08658" lon="7.33159">
        <ele>211.15</ele>
        <time>2011-05-20T21:05:39Z</time>
      </trkpt>
      <trkpt lat="48.08659" lon="7.33158">
        <ele>211.63</ele>
        <time>2011-05-20T21:05:45Z</time>
      </trkpt>
      <trkpt lat="48.08659" lon="7.33158">
        <ele>211.63</ele>
        <time>2011-05-20T21:05:56Z</time>
      </trkpt>
      <trkpt lat="48.08659" lon="7.33158">
        <ele>211.63</ele>
        <time>2011-05-20T21:06:08Z</time>
      </trkpt>
      <trkpt lat="48.08659" lon="7.33157">
        <ele>211.63</ele>
        <time>2011-05-20T21:06:22Z</time>
      </trkpt>
      <trkpt lat="48.08659" lon="7.33157">
        <ele>211.63</ele>
        <time>2011-05-20T21:06:31Z</time>
      </trkpt>
      <trkpt lat="48.08662" lon="7.33144">
        <ele>211.15</ele>
        <time>2011-05-20T21:06:39Z</time>
      </trkpt>
      <trkpt lat="48.08661" lon="7.33123">
        <ele>211.15</ele>
        <time>2011-05-20T21:06:45Z</time>
      </trkpt>
      <trkpt lat="48.08645" lon="7.33116">
        <ele>212.11</ele>
        <time>2011-05-20T21:06:51Z</time>
      </trkpt>
      <trkpt lat="48.08633" lon="7.33112">
        <ele>211.63</ele>
        <time>2011-05-20T21:06:54Z</time>
      </trkpt>
      <trkpt lat="48.08624" lon="7.33108">
        <ele>211.15</ele>
        <time>2011-05-20T21:06:56Z</time>
      </trkpt>
      <trkpt lat="48.08594" lon="7.33094">
        <ele>211.63</ele>
        <time>2011-05-20T21:07:02Z</time>
      </trkpt>
      <trkpt lat="48.08577" lon="7.3309">
        <ele>210.19</ele>
        <time>2011-05-20T21:07:05Z</time>
      </trkpt>
      <trkpt lat="48.08527" lon="7.33069">
        <ele>209.7</ele>
        <time>2011-05-20T21:07:15Z</time>
      </trkpt>
      <trkpt lat="48.08522" lon="7.33067">
        <ele>209.7</ele>
        <time>2011-05-20T21:07:16Z</time>
      </trkpt>
      <trkpt lat="48.08496" lon="7.33058">
        <ele>210.19</ele>
        <time>2011-05-20T21:07:21Z</time>
      </trkpt>
      <trkpt lat="48.08467" lon="7.33046">
        <ele>211.15</ele>
        <time>2011-05-20T21:07:27Z</time>
      </trkpt>
      <trkpt lat="48.08444" lon="7.33037">
        <ele>210.67</ele>
        <time>2011-05-20T21:07:33Z</time>
      </trkpt>
      <trkpt lat="48.08433" lon="7.33031">
        <ele>211.15</ele>
        <time>2011-05-20T21:07:36Z</time>
      </trkpt>
      <trkpt lat="48.08419" lon="7.33025">
        <ele>211.63</ele>
        <time>2011-05-20T21:07:40Z</time>
      </trkpt>
      <trkpt lat="48.08394" lon="7.33013">
        <ele>212.11</ele>
        <time>2011-05-20T21:07:47Z</time>
      </trkpt>
      <trkpt lat="48.08382" lon="7.33008">
        <ele>211.63</ele>
        <time>2011-05-20T21:07:50Z</time>
      </trkpt>
      <trkpt lat="48.08346" lon="7.32993">
        <ele>212.59</ele>
        <time>2011-05-20T21:07:59Z</time>
      </trkpt>
      <trkpt lat="48.08314" lon="7.32981">
        <ele>212.59</ele>
        <time>2011-05-20T21:08:07Z</time>
      </trkpt>
      <trkpt lat="48.08295" lon="7.32971">
        <ele>212.11</ele>
        <time>2011-05-20T21:08:12Z</time>
      </trkpt>
      <trkpt lat="48.08283" lon="7.32963">
        <ele>212.11</ele>
        <time>2011-05-20T21:08:15Z</time>
      </trkpt>
      <trkpt lat="48.08246" lon="7.32946">
        <ele>212.11</ele>
        <time>2011-05-20T21:08:24Z</time>
      </trkpt>
      <trkpt lat="48.08223" lon="7.32936">
        <ele>212.11</ele>
        <time>2011-05-20T21:08:29Z</time>
      </trkpt>
      <trkpt lat="48.08197" lon="7.32911">
        <ele>211.63</ele>
        <time>2011-05-20T21:08:37Z</time>
      </trkpt>
      <trkpt lat="48.08199" lon="7.32877">
        <ele>213.55</ele>
        <time>2011-05-20T21:08:44Z</time>
      </trkpt>
      <trkpt lat="48.08209" lon="7.32829">
        <ele>213.55</ele>
        <time>2011-05-20T21:08:51Z</time>
      </trkpt>
      <trkpt lat="48.08214" lon="7.32785">
        <ele>213.55</ele>
        <time>2011-05-20T21:08:59Z</time>
      </trkpt>
      <trkpt lat="48.08218" lon="7.32748">
        <ele>213.55</ele>
        <time>2011-05-20T21:09:07Z</time>
      </trkpt>
      <trkpt lat="48.08223" lon="7.32706">
        <ele>214.51</ele>
        <time>2011-05-20T21:09:16Z</time>
      </trkpt>
      <trkpt lat="48.08225" lon="7.32693">
        <ele>215.47</ele>
        <time>2011-05-20T21:09:22Z</time>
      </trkpt>
    </trkseg>
  </trk>
</gpx>